ログインしてさらにmixiを楽しもう

コメントを投稿して情報交換!
更新通知を受け取って、最新情報をゲット!

ホーム > コミュニティ > サークル、ゼミ > RJCCのMETAR・TAF 愛好会 > トピック一覧 > 【資料編】日々のMETAR 2...

RJCCのMETAR・TAF 愛好会コミュの【資料編】日々のMETAR 2018年01月01日〜2018年12月31日分

  • mixiチェック
  • このエントリーをはてなブックマークに追加

コミュ内全体

記録できた日々のMETAR報を貼っていきます。
時々データ抜けのあることがあります。
収集元でデータの欠落がある場合もありますのであくまで参考に願います。
(気が付いた部分は手修正をしてある場合もあります)

また、資料編ですのでお気づきな点や雑談は↓
http://mixi.jp/view_bbs.pl?id=49275149&comm_id=4753062
↑こちらへどうぞ お願いします

2018年01月01日 00h (UTC)〜 01月31日 24h(UTC) コメントNo 001〜086
2018年02月01日 00h (UTC)〜 02月28日 24h(UTC) コメントNo 087〜167
2018年03月01日 00h (UTC)〜 03月31日 24h(UTC) コメントNo 168〜250
2018年04月01日 00h (UTC)〜 04月30日 24h(UTC) コメントNo 251〜330
2018年05月01日 00h (UTC)〜 05月31日 24h(UTC) コメントNo 331〜413
2018年06月01日 00h (UTC)〜 06月30日 24h(UTC) コメントNo 414〜504
2018年07月01日 00h (UTC)〜 07月31日 24h(UTC) コメントNo 505〜607
2018年08月01日 00h (UTC)〜 08月31日 24h(UTC) コメントNo 608〜701
2018年09月01日 00h (UTC)〜 09月30日 24h(UTC) コメントNo 702〜775
2018年10月01日 00h (UTC)〜 10月31日 24h(UTC) コメントNo 776〜
2018年11月01日 00h (UTC)〜 11月30日 24h(UTC) コメントNo 〜
2018年12月01日 00h (UTC)〜 12月31日 24h(UTC) コメントNo 〜



2009年12月26日〜2010年12月31日分の分は↓
http://mixi.jp/view_bbs.pl?id=51133430&comm_id=4753062
2011年01月01日〜2011年12月31日分の分は↓
http://mixi.jp/view_bbs.pl?id=59038880&comm_id=4753062
2012年01月01日〜2012年12月31日分の分は↓
http://mixi.jp/view_bbs.pl?id=67034312&comm_id=4753062
2013年01月01日〜2013年12月31日分の分は↓
http://mixi.jp/view_bbs.pl?id=72710304&comm_id=4753062
2014年01月01日〜2014年12月31日分の分は↓
http://mixi.jp/view_bbs.pl?id=75482778&comm_id=4753062
2015年01月01日〜2015年12月16日分の分は↓
http://mixi.jp/view_bbs.pl?id=77499256&comm_id=4753062
2015年12月17日〜2015年12月31日分の分は↓
http://mixi.jp/view_bbs.pl?id=79198706&comm_id=4753062
2016年01月01日〜2016年11月30日分の分は↓
http://mixi.jp/view_bbs.pl?comm_id=4753062&id=79198682
2016年12月01日〜2016年12月31日分の分は↓
http://mixi.jp/view_bbs.pl?comm_id=4753062&id=81180137
2017年12月01日〜2017年12月31日分の分は↓
http://mixi.jp/view_bbs.pl?comm_id=4753062&id=81442107

コメント(839)

-3
RJCC 102100Z 13013KT 9999 -SHRA FEW008 SCT010 BKN020 15/12 Q1014 RMK 1ST008 3ST010 7CU020 A2997
RJCC 102114Z 23007KT 140V320 9999 -SHRA FEW008 SCT010 BKN020 14/12 Q1014 RMK 1ST008 3ST010 7CU020 A2997
RJCC 102130Z 22003KT 140V290 9999 -SHRA FEW010 SCT015 BKN025 15/11 Q1014 RMK 1ST010 4ST015 6CU025 A2997
RJCC 102200Z VRB03KT 9999 -SHRA FEW010 SCT015 BKN025 15/12 Q1015 RMK 1ST010 4ST015 7CU025 A2997
RJCC 102230Z 28009KT 9999 -SHRA FEW010 SCT015 BKN030 FEW030CB 15/12 Q1015 RMK 1ST010 4ST015 7CU030 1CB030 A2998 CB 15KM SW MOV NE
RJCC 102300Z 17007KT 120V220 9999 -SHRA FEW010 SCT015 BKN030 FEW030CB 16/13 Q1015 WS R19L RMK 1ST010 4ST015 7CU030 1CB030 A2997 CB 5KM SW MOV NE
RJCC 102305Z 23011KT 9999 -SHRA BR FEW010 BKN015 BKN030 FEW030CB 16/12 Q1015 RMK 1ST010 5ST015 7CU030 1CB030 A2997 4000SW-W CB OHD MOV NE
RJCC 102311Z 17005KT 100V250 9999 -SHRA BR FEW010 BKN015 BKN030 16/13 Q1015 RMK 1ST010 5ST015 7CU030 A2998 4000W
RJCC 102330Z VRB04KT 9999 -SHRA FEW010 BKN015 BKN030 FEW030CB 15/13 Q1014 RMK 1ST010 5ST015 7CU030 1CB030 A2997 CB 10KM W-NW MOV NE
2018年10月11日00-24UTC 新千歳空港METAR -1

RJCC 110000Z 24005KT 170V300 9999 R19R/1000VP2000D R19L/P2000N SHRA BR FEW010 BKN015 BKN030 FEW030CB 15/14 Q1015 RMK 1ST010 5ST015 7CU030 2CB030 A2997 4000W-N CB
RJCC 110003Z 23005KT 170V300 5000 R19R/1000VP2000D R19L/P2000N +SHRA BR FEW010 BKN015 BKN030 FEW030CB 15/14 Q1015 RMK 1ST010 5ST015 7CU030 2CB030 A2998 CB OHD MOV NE
RJCC 110009Z 16017G27KT 120V230 5000 R19R/0550VP2000N R19L/0900VP2000D +SHRA BR FEW010 BKN015 BKN030 FEW030CB 16/14 Q1014 RMK 1ST010 5ST015 7CU030 2CB030 A2996 CB OHD MOV NE RI++
RJCC 110012Z 15016KT 9999 R19R///// R19L/0900VP2000D SHRA BR FEW010 BKN015 BKN030 FEW030CB 17/14 Q1014 RMK 1ST010 5ST015 7CU030 2CB030 A2996 5000N-E CB OHD MOV NE
RJCC 110018Z 17016G28KT 120V200 9999 R19R/0550VP2000N R19L/0900VP2000U SHRA BR FEW010 BKN015 BKN030 FEW030CB 17/14 Q1014 RMK 1ST010 5ST015 7CU030 1CB030 A2996 5000N-NE CB 5KM E MOV NE
RJCC 110021Z 17018G29KT 130V200 9999 R19R/P2000N R19L/P2000N SHRA BR FEW010 BKN015 BKN030 FEW030CB 18/14 Q1014 RMK 1ST010 5ST015 7CU030 1CB030 A2996 5000N-NE CB 5KM E MOV NE
RJCC 110030Z 15021G38KT 9999 -SHRA FEW010 BKN015 BKN030 FEW030CB 17/14 Q1014 WS R19L RMK 1ST010 5ST015 7CU030 1CB030 A2996 CB 10KM E MOV NE
RJCC 110100Z 14011KT 9999 FEW010 BKN015 BKN030 FEW030CB 17/14 Q1014 RMK 1ST010 5ST015 7CU030 1CB030 A2996 CB 10KM W-NW MOV NE
RJCC 110130Z 15016KT 9999 FEW010 BKN018 BKN030 FEW030CB 18/15 Q1014 RMK 1ST010 5ST018 7CU030 1CB030 A2996 CB 10KM NW MOV NE
RJCC 110200Z 14014KT 9999 FEW010 BKN015 BKN030 FEW030CB 18/15 Q1014 RMK 1ST010 5ST015 7CU030 1CB030 A2996 CB 10KM NW MOV NE
RJCC 110230Z 14012KT 9999 FEW010 BKN015 BKN030 FEW030CB 18/15 Q1014 RMK 1ST010 5ST015 7CU030 1CB030 A2996 CB 10KM NW MOV NE
RJCC 110300Z 15014KT 9999 VCSH FEW010 SCT015 BKN030 FEW030CB 18/15 Q1014 RMK 1ST010 4ST015 7CU030 1CB030 A2995 CB 10KM NW MOV NE SH NW
RJCC 110330Z 15014KT 9999 FEW010 SCT015 BKN030 18/15 Q1014 RMK 1ST010 3ST015 7CU030 A2995
-2
RJCC 110400Z 16011KT 9999 FEW010 BKN012 BKN030 18/15 Q1014 RMK 1ST010 6ST012 7CU030 A2994
RJCC 110430Z 16015KT 9999 FEW010 BKN012 BKN030 18/15 Q1013 RMK 1ST010 6ST012 7CU030 A2994
RJCC 110500Z 15014KT 9999 FEW010 BKN018 BKN030 18/15 Q1014 RMK 1ST010 6ST018 7CU030 A2994
RJCC 110530Z 16013KT 9999 FEW010 SCT018 BKN030 18/15 Q1014 RMK 1ST010 4ST018 7CU030 A2994
RJCC 110600Z 16014KT 9999 FEW008 BKN012 BKN030 18/16 Q1014 RMK 1ST008 5ST012 7CU030 A2995
RJCC 110630Z 17011KT 9999 FEW006 SCT010 BKN030 18/16 Q1014 RMK 1ST006 3ST010 5CU030 A2996
RJCC 110700Z 17015KT 9999 -SHRA FEW008 SCT030 BKN090 18/14 Q1014 RMK 1ST008 3CU030 7AC090 A2995
RJCC 110730Z 18013KT 9999 -SHRA FEW008 SCT030 BKN090 17/13 Q1014 RMK 1ST008 3CU030 7AC090 A2996
RJCC 110800Z 19006KT 9999 -SHRA FEW008 BKN090 17/13 Q1014 RMK 1ST008 7AC090 A2997
RJCC 110830Z 18011KT 9999 -SHRA FEW008 SCT040 BKN080 16/13 Q1015 RMK 1ST008 3CU040 7AC080 A2997
RJCC 110900Z 19009KT 9999 -SHRA FEW008 SCT030 BKN080 16/13 Q1015 RMK 1ST008 3CU030 7AC080 A2998
RJCC 110930Z 17005KT 9999 -SHRA FEW008 SCT030 BKN080 15/14 Q1015 RMK 1ST008 3CU030 7AC080 A2998
RJCC 111000Z 14005KT 9999 -SHRA FEW008 SCT070 BKN100 15/14 Q1015 RMK 1ST008 3AC070 7AC100 A2997
RJCC 111030Z 14003KT 9999 -SHRA FEW003 BKN080 15/14 Q1015 RMK 1ST003 7AC080 A2997
RJCC 111100Z VRB01KT 9999 -SHRA FEW003 BKN080 15/12 Q1015 RMK 1ST003 7AC080 A2998
RJCC 111130Z VRB02KT 9999 -SHRA FEW003 BKN080 15/11 Q1014 RMK 1ST003 7AC080 A2997
RJCC 111200Z VRB02KT 9999 -SHRA FEW003 BKN070 13/12 Q1015 RMK 1ST003 7AC070 A2997
RJCC 111230Z VRB01KT 9999 -SHRA FEW003 BKN060 13/12 Q1015 RMK 1ST003 7CU060 A2997
RJCC 111300Z 05003KT 010V100 9999 -SHRA FEW003 BKN060 14/12 Q1014 RMK 1ST003 7CU060 A2996
RJCC 111330Z 00000KT 9999 -SHRA FEW003 SCT008 BKN070 13/12 Q1014 RMK 1ST003 3ST008 7AC070 A2995
RJCC 111341Z VRB01KT 9999 -SHRA FEW003 BKN008 BKN070 13/12 Q1014 RMK 1ST003 5ST008 7AC070 A2995
RJCC 111400Z 25004KT 9999 -SHRA FEW003 BKN006 BKN070 13/12 Q1014 RMK 1ST003 6ST006 7AC070 A2995
-3
RJCC 111430Z 26004KT 8000 -SHRA FEW003 SCT007 BKN070 13/12 Q1014 RMK 1ST003 3ST007 7AC070 A2995
RJCC 111500Z 25002KT 8000 -SHRA FEW003 BKN008 BKN060 13/12 Q1014 RMK 1ST003 6ST008 7CU060 A2994
RJCC 111530Z 26003KT 9999 -SHRA FEW003 SCT008 BKN060 13/12 Q1013 RMK 1ST003 3ST008 7CU060 A2993
RJCC 111600Z 07001KT 8000 -SHRA FEW003 BKN060 13/12 Q1013 RMK 1ST003 7CU060 A2993
RJCC 111630Z 04001KT 8000 -SHRA FEW003 BKN050 13/12 Q1013 RMK 1ST003 7CU050 A2992
RJCC 111700Z 00000KT 6000 -SHRA FEW003 BKN040 13/12 Q1013 RMK 1ST003 7CU040 A2992
RJCC 111730Z 00000KT 6000 -SHRA FEW003 BKN060 12/12 Q1013 RMK 1ST003 7CU060 A2991
RJCC 111800Z 23001KT 5000 -SHRA BR FEW003 BKN060 12/12 Q1012 RMK 1ST003 7CU060 A2990
RJCC 111830Z VRB01KT 5000 -SHRA BR FEW003 BKN050 12/12 Q1012 RMK 1ST003 7CU050 A2989
RJCC 111900Z VRB01KT 5000 -SHRA BR FEW003 SCT010 BKN050 12/12 Q1012 RMK 1ST003 3ST010 6CU050 A2990
RJCC 111930Z VRB02KT 5000 -SHRA BR FEW001 SCT010 BKN050 12/12 Q1012 RMK 1ST001 3ST010 6CU050 A2990
RJCC 112000Z 00000KT 6000 -SHRA FEW002 BKN040 12/12 Q1012 RMK 1ST002 6CU040 A2991
RJCC 112022Z 00000KT 4900 -SHRA BR FEW002 BKN040 12/12 Q1013 RMK 1ST002 6CU040 A2991
RJCC 112030Z 00000KT 3500 -SHRA BR FEW002 BKN040 12/12 Q1013 RMK 1ST002 7CU040 A2991
RJCC 112100Z VRB01KT 4000 -SHRA BR FEW002 BKN040 12/12 Q1012 RMK 1ST002 7CU040 A2991
RJCC 112130Z 13002KT 4500 -SHRA BR FEW002 BKN050 12/12 Q1013 RMK 1ST002 7CU050 A2992
RJCC 112146Z 16002KT 4500 -SHRA BR FEW002 BKN006 BKN060 12/12 Q1013 RMK 1ST002 5ST006 7CU060 A2992
-4
RJCC 112200Z 16002KT 3000 -SHRA BR FEW001 SCT002 BKN006 12/12 Q1013 RMK 1ST001 3ST002 6ST006 A2992
RJCC 112223Z VRB02KT 3200 -SHRA BR FEW001 SCT006 BKN010 12/12 Q1013 RMK 1ST001 3ST006 5ST010 A2992
RJCC 112230Z 11003KT 4000 -SHRA BR FEW001 SCT012 BKN040 12/12 Q1013 RMK 1ST001 3ST012 6CU040 A2992
RJCC 112300Z 11004KT 3500 -SHRA BR FEW002 BKN005 BKN008 13/12 Q1012 RMK 1ST002 6ST005 7ST008 A2990
RJCC 112323Z 16004KT 3100 -SHRA BR FEW001 BKN003 BKN005 13/12 Q1012 RMK 1ST001 5ST003 7ST005 A2990
RJCC 112330Z 15005KT 3000 BR FEW001 BKN003 BKN005 13/12 Q1012 RMK 1ST001 6ST003 7ST005 A2991
2018年10月12日00-24UTC 新千歳空港METAR -1

RJCC 120000Z 17006KT 3000 BR FEW002 BKN003 BKN005 13/13 Q1012 RMK 2ST002 6ST003 7ST005 A2990
RJCC 120030Z 17006KT 3000 BR FEW002 BKN003 BKN005 14/13 Q1012 RMK 1ST002 5ST003 7ST005 A2991
RJCC 120100Z 14004KT 100V170 5000 BR FEW003 BKN005 BKN130 15/14 Q1012 RMK 2ST003 5ST005 7AC130 A2990 9999S-W
RJCC 120113Z 13004KT 090V180 9999 FEW003 BKN006 BKN130 15/14 Q1012 RMK 1ST003 5ST006 7AC130 A2990
RJCC 120122Z 13003KT 050V160 9999 FEW005 SCT008 BKN130 16/14 Q1012 RMK 1ST005 4ST008 5AC130 A2990
RJCC 120130Z 11004KT 060V160 9999 FEW008 SCT012 17/12 Q1012 RMK 2ST008 3ST012 A2990
RJCC 120200Z 17010KT 9999 FEW015 SCT025 18/11 Q1012 RMK 1ST015 4CU025 A2989
RJCC 120230Z 20012KT 170V230 9999 FEW015 SCT030 18/10 Q1012 RMK 1ST015 4CU030 A2988
RJCC 120300Z 20011KT 9999 FEW015 SCT030 18/08 Q1011 RMK 1ST015 3CU030 A2986
RJCC 120330Z 21009KT 170V240 9999 FEW020 SCT040 19/08 Q1011 RMK 1CU020 3CU040 A2986
RJCC 120334Z 28010KT 220V330 9999 FEW020 SCT040 19/06 Q1011 RMK 1CU020 3CU040 A2986
RJCC 120400Z 22012KT 9999 FEW020 SCT/// 18/06 Q1011 RMK 1CU020 A2986
RJCC 120430Z 23013KT 9999 FEW020 BKN080 18/06 Q1011 RMK 1CU020 5AC080 A2987
RJCC 120500Z 21012KT 9999 FEW020 17/05 Q1011 RMK 1CU020 A2987
RJCC 120530Z 25017KT 9999 FEW020 SCT070 16/05 Q1011 RMK 1CU020 4AC070 A2988
RJCC 120600Z 25017KT 9999 FEW020 16/05 Q1011 RMK 1CU020 A2987
RJCC 120630Z 26014KT 210V280 9999 FEW020 16/05 Q1012 RMK 1CU020 A2989
RJCC 120700Z 25010KT 220V280 9999 FEW020 15/05 Q1012 RMK 1CU020 A2990
RJCC 120730Z 23009KT 200V260 9999 FEW020 15/05 Q1012 RMK 1CU020 A2991
RJCC 120800Z 22010KT 9999 FEW020 13/06 Q1013 RMK 1CU020 A2992
RJCC 120830Z 22007KT 9999 FEW020 13/06 Q1013 RMK 1CU020 A2993
RJCC 120900Z 24011KT 9999 FEW020 13/06 Q1014 RMK 1CU020 A2995
RJCC 120930Z 22010KT 9999 FEW020 BKN050 12/07 Q1014 RMK 1CU020 5CU050 A2995
RJCC 121000Z 24008KT 190V260 9999 FEW020 BKN050 13/07 Q1014 RMK 1CU020 5CU050 A2997
RJCC 121030Z 23011KT 9999 FEW020 SCT050 13/07 Q1014 RMK 1CU020 3CU050 A2997
-2
RJCC 121100Z 22007KT 190V260 9999 FEW020 BKN040 12/07 Q1015 RMK 1CU020 5CU040 A2998
RJCC 121122Z 30010KT 9999 FEW020 SCT040 BKN060 14/07 Q1015 RMK 1CU020 3CU040 6CU060 A2998
RJCC 121130Z 29010KT 230V340 9999 FEW020 BKN060 13/07 Q1015 RMK 1CU020 5CU060 A2999
RJCC 121200Z 34018KT 9999 FEW020 BKN030 14/08 Q1016 RMK 1CU020 5CU030 A3002
RJCC 121230Z 33012KT 9999 FEW020 BKN030 13/07 Q1017 RMK 1CU020 5CU030 A3004
RJCC 121300Z 33008KT 9999 FEW020 BKN035 13/08 Q1017 RMK 1CU020 5CU035 A3005
RJCC 121330Z 36006KT 9999 -SHRA FEW020 BKN030 13/09 Q1018 RMK 1CU020 7CU030 A3007
RJCC 121400Z 31003KT 9999 FEW020 BKN030 12/09 Q1018 RMK 1CU020 6CU030 A3007
RJCC 121430Z 32006KT 9999 FEW020 SCT030 12/08 Q1019 RMK 1CU020 4CU030 A3009
RJCC 121500Z 33003KT 260V040 9999 FEW020 SCT030 12/08 Q1019 RMK 1CU020 4CU030 A3010
RJCC 121530Z 32009KT 9999 FEW020 11/08 Q1019 RMK 1CU020 A3010
RJCC 121600Z 32008KT 9999 FEW020 11/07 Q1019 RMK 1CU020 A3010
RJCC 121630Z 30007KT 9999 FEW020 11/08 Q1020 RMK 1CU020 A3013
RJCC 121700Z 30007KT 9999 FEW020 10/08 Q1020 RMK 1CU020 A3014
RJCC 121730Z 02005KT 9999 FEW020 09/07 Q1021 RMK 1CU020 A3015
RJCC 121800Z 29005KT 9999 FEW020 09/08 Q1021 RMK 1CU020 A3016
RJCC 121830Z 30007KT 9999 FEW020 SCT060 09/08 Q1022 RMK 1CU020 3CU060 A3018
RJCC 121900Z 31005KT 9999 FEW020 09/08 Q1022 RMK 1CU020 A3019
RJCC 121930Z VRB01KT 9999 -SHRA FEW020 BKN060 09/08 Q1022 RMK 1CU020 6CU060 A3020
RJCC 122000Z 32001KT 9999 FEW020 09/08 Q1023 RMK 1CU020 A3021
RJCC 122030Z 03002KT 9999 FEW030 08/07 Q1023 RMK 1CU030 A3021
RJCC 122100Z VRB01KT 9999 PRFG FEW030 SCT060 07/07 Q1023 RMK 1CU030 3CU060 A3023 FG E-SE
RJCC 122130Z 14003KT 9999 FEW030 08/08 Q1024 RMK 1CU030 A3025
RJCC 122200Z 17001KT 9999 FEW030 09/08 Q1024 RMK 1CU030 A3025
RJCC 122230Z VRB01KT 9999 FEW030 11/08 Q1024 RMK 1CU030 A3026
RJCC 122300Z VRB02KT 9999 FEW030 12/08 Q1025 RMK 1CU030 A3027
RJCC 122330Z VRB02KT 9999 FEW030 13/08 Q1025 RMK 1CU030 A3028
2018年10月13日00-24UTC 新千歳空港METAR -1

RJCC 130000Z VRB02KT 9999 FEW030 14/06 Q1025 RMK 1CU030 A3028
RJCC 130030Z VRB02KT 9999 FEW030 15/08 Q1025 RMK 1CU030 A3028
RJCC 130100Z VRB03KT 9999 FEW020 SCT030 15/07 Q1025 RMK 1CU020 3CU030 A3027
RJCC 130130Z VRB01KT 9999 FEW030 SCT040 16/06 Q1025 RMK 1CU030 3CU040 A3027
RJCC 130200Z 01004KT 300V070 9999 FEW030 SCT040 16/06 Q1024 RMK 1CU030 3CU040 A3026
RJCC 130230Z VRB03KT 9999 FEW030 SCT040 16/06 Q1024 RMK 1CU030 3CU040 A3026
RJCC 130300Z VRB03KT 9999 FEW030 SCT040 17/05 Q1024 RMK 1CU030 4CU040 A3025
RJCC 130330Z VRB05KT 9999 FEW030 BKN045 16/06 Q1024 RMK 1CU030 5CU045 A3024
RJCC 130400Z VRB02KT 9999 FEW030 BKN045 17/06 Q1024 RMK 1CU030 5CU045 A3024
RJCC 130430Z 21007KT 9999 FEW030 BKN045 16/07 Q1024 RMK 1CU030 5CU045 A3025
RJCC 130500Z VRB03KT 9999 FEW030 SCT045 BKN060 17/07 Q1024 RMK 1CU030 4CU045 5CU060 A3024
RJCC 130530Z 22003KT 140V270 9999 FEW030 SCT045 BKN060 16/07 Q1023 RMK 1CU030 3CU045 5CU060 A3023
RJCC 130600Z 19003KT 150V250 9999 FEW030 SCT060 17/07 Q1023 RMK 1CU030 3CU060 A3023
RJCC 130630Z 21006KT 9999 FEW030 SCT060 16/07 Q1024 RMK 1CU030 3CU060 A3024
RJCC 130700Z 21005KT 9999 FEW030 16/07 Q1023 RMK 1CU030 A3023
RJCC 130730Z 21006KT 9999 FEW030 15/07 Q1023 RMK 1CU030 A3023
RJCC 130800Z 21004KT 9999 FEW030 14/07 Q1023 RMK 1CU030 A3023
RJCC 130830Z 22005KT 9999 FEW030 13/08 Q1024 RMK 1CU030 A3024
RJCC 130900Z 23004KT 9999 FEW030 12/08 Q1024 RMK 1CU030 A3025
RJCC 130930Z 24004KT 9999 FEW030 12/08 Q1024 RMK 1CU030 A3025
RJCC 131000Z VRB02KT 9999 FEW030 11/08 Q1024 RMK 1CU030 A3024
RJCC 131030Z VRB01KT 9999 FEW030 10/08 Q1024 RMK 1CU030 A3024
RJCC 131100Z 13002KT 9999 FEW030 09/08 Q1024 RMK 1CU030 A3025
RJCC 131130Z VRB01KT 9999 FEW030 SCT060 08/07 Q1024 RMK 1CU030 3CU060 A3025
RJCC 131200Z 13002KT 9999 FEW030 BKN060 08/07 Q1024 RMK 1CU030 5CU060 A3025
RJCC 131230Z 15001KT 9999 FEW030 BKN060 09/08 Q1024 RMK 1CU030 7CU060 A3026
-2
RJCC 131300Z 17001KT 9999 FEW030 BKN060 09/07 Q1024 RMK 1CU030 7CU060 A3026
RJCC 131330Z 18002KT 9999 FEW030 BKN060 09/08 Q1024 RMK 1CU030 6CU060 A3025
RJCC 131400Z 18002KT 9999 FEW030 SCT060 08/07 Q1024 RMK 1CU030 3CU060 A3026
RJCC 131430Z VRB02KT 9999 FEW030 08/07 Q1024 RMK 1CU030 A3025
RJCC 131500Z VRB01KT 9999 FEW030 07/07 Q1024 RMK 1CU030 A3025
RJCC 131530Z 20002KT 9999 FEW030 07/06 Q1024 RMK 1CU030 A3025
RJCC 131600Z 00000KT 9999 FEW030 07/06 Q1024 RMK 2CU030 A3025
RJCC 131630Z 32002KT 9999 FEW030 06/05 Q1024 RMK 2CU030 A3025
RJCC 131700Z 34003KT 9999 FEW030 07/05 Q1024 RMK 1CU030 A3024
RJCC 131730Z 35003KT 320V050 9999 FEW030 06/06 Q1023 RMK 1CU030 A3023
RJCC 131800Z 33003KT 9999 FEW030 SCT050 06/06 Q1023 RMK 1CU030 3CU050 A3023
RJCC 131830Z 34004KT 9999 FEW030 SCT040 06/05 Q1023 RMK 1CU030 3CU040 A3023
RJCC 131900Z 35004KT 330V030 9999 FEW030 SCT040 06/06 Q1023 RMK 1CU030 3CU040 A3022
RJCC 131930Z 35005KT 9999 FEW030 SCT040 07/06 Q1023 RMK 1CU030 4CU040 A3023
RJCC 132000Z 34004KT 9999 FEW030 SCT045 06/06 Q1023 RMK 1CU030 3CU045 A3023
RJCC 132030Z 33002KT 9999 FEW015 BKN040 07/06 Q1023 RMK 1ST015 6CU040 A3023
RJCC 132100Z VRB01KT 9999 FEW015 BKN040 07/06 Q1023 RMK 1ST015 6CU040 A3023
RJCC 132130Z 31003KT 9999 FEW015 SCT040 07/06 Q1023 RMK 1ST015 4CU040 A3023
RJCC 132200Z 33003KT 9999 FEW010 SCT050 09/08 Q1023 RMK 1ST010 4CU050 A3022
RJCC 132230Z 33004KT 9999 FEW015 11/08 Q1023 RMK 1ST015 A3022
RJCC 132300Z VRB03KT 9999 FEW020 12/08 Q1023 RMK 1CU020 A3021
RJCC 132330Z VRB02KT 9999 FEW025 13/09 Q1023 RMK 1CU025 A3021
2018年10月14日00-24UTC 新千歳空港METAR -1

RJCC 140000Z VRB02KT 9999 FEW030 15/09 Q1023 RMK 1CU030 A3021
RJCC 140030Z 14009KT 110V170 9999 FEW030 SCT/// 16/09 Q1022 RMK 1CU030 A3021
RJCC 140100Z 16010KT 9999 FEW030 SCT070 16/09 Q1022 RMK 1CU030 3AC070 A3020
RJCC 140130Z 15010KT 110V180 9999 FEW025 SCT050 BKN070 17/09 Q1022 RMK 1CU025 3CU050 5AC070 A3019
RJCC 140200Z 15010KT 110V180 9999 FEW025 BKN050 17/09 Q1022 RMK 1CU025 5CU050 A3018
RJCC 140230Z 17013KT 9999 FEW025 BKN050 18/10 Q1021 RMK 1CU025 5CU050 A3016
RJCC 140300Z 17014KT 9999 FEW025 BKN050 17/10 Q1021 RMK 1CU025 5CU050 A3015
RJCC 140330Z 16016KT 9999 FEW025 BKN050 16/10 Q1021 RMK 1CU025 5CU050 A3015
RJCC 140400Z 15012KT 9999 FEW025 BKN050 17/09 Q1020 RMK 1CU025 5CU050 A3014
RJCC 140430Z 15013KT 9999 VCSH FEW025 SCT035 BKN040 16/09 Q1020 RMK 1CU025 3CU035 5CU040 A3014 SH SW
RJCC 140500Z 16013KT 9999 -SHRA FEW015 SCT030 BKN040 15/10 Q1020 RMK 1ST015 3CU030 6CU040 A3015
RJCC 140530Z 19008KT 150V220 9999 -SHRA BR FEW015 SCT030 BKN040 14/11 Q1021 RMK 1ST015 3CU030 6CU040 A3015 4000SW-W
RJCC 140540Z 23009KT 9999 SHRA BR FEW010 SCT030 BKN040 13/12 Q1021 RMK 1ST010 3CU030 6CU040 A3016 5000S-SW
RJCC 140600Z 20008KT 9999 SHRA FEW008 SCT030 BKN040 13/11 Q1021 RMK 1ST008 4CU030 6CU040 A3016
RJCC 140623Z 19008KT 9999 -SHRA FEW008 SCT030 BKN040 13/11 Q1021 RMK 1ST008 3CU030 6CU040 A3016
RJCC 140630Z 19007KT 9999 -SHRA FEW008 SCT030 BKN050 13/11 Q1021 RMK 1ST008 3CU030 6CU050 A3016
RJCC 140700Z 27003KT 210V320 9999 -SHRA FEW008 SCT030 BKN050 13/11 Q1021 RMK 1ST008 3CU030 7CU050 A3015
RJCC 140730Z 25005KT 210V270 9999 -SHRA FEW008 SCT030 BKN050 13/11 Q1021 RMK 1ST008 3CU030 7CU050 A3015
RJCC 140800Z VRB02KT 9999 -SHRA FEW010 SCT030 BKN060 13/11 Q1020 RMK 1ST010 3CU030 7CU060 A3015
RJCC 140830Z 07003KT 050V150 9999 -SHRA FEW010 BKN060 13/11 Q1021 RMK 1ST010 7CU060 A3015
RJCC 140900Z 09005KT 9999 -SHRA FEW010 BKN050 12/11 Q1021 RMK 1ST010 7CU050 A3015
-2
RJCC 140930Z 11006KT 9999 -SHRA FEW010 SCT040 BKN050 12/11 Q1020 RMK 1ST010 3CU040 7CU050 A3015
RJCC 141000Z 15005KT 110V230 9999 -SHRA FEW010 SCT030 BKN050 13/11 Q1020 RMK 1ST010 4CU030 7CU050 A3015
RJCC 141030Z 15004KT 9999 -SHRA FEW010 SCT030 BKN050 12/11 Q1020 RMK 1ST010 3CU030 7CU050 A3014
RJCC 141100Z 15006KT 8000 -SHRA FEW008 SCT030 BKN050 12/11 Q1020 RMK 1ST008 3CU030 7CU050 A3014
RJCC 141109Z 17007KT 6000 SHRA FEW008 SCT030 BKN050 12/10 Q1020 RMK 1ST008 3CU030 7CU050 A3014
RJCC 141130Z 16005KT 6000 SHRA FEW008 SCT030 BKN050 12/10 Q1020 RMK 1ST008 3CU030 7CU050 A3014
RJCC 141141Z 17005KT 8000 -SHRA FEW008 BKN045 12/10 Q1020 RMK 1ST008 7CU045 A3014 MOD TURB OBS AT 1122Z 10NM S RJCC BTN 8000FT AND 10000FT IN CMB A320
RJCC 141200Z 14005KT 8000 -SHRA FEW008 SCT035 BKN045 12/10 Q1020 RMK 1ST008 3CU035 7CU045 A3013
RJCC 141223Z 15006KT 4900 SHRA BR FEW008 SCT040 BKN050 12/10 Q1020 RMK 1ST008 3CU040 7CU050 A3013
RJCC 141230Z 15008KT 4000 SHRA BR FEW008 SCT040 BKN050 12/10 Q1020 RMK 1ST008 3CU040 7CU050 A3013
RJCC 141300Z 19007KT 4500 -SHRA BR FEW008 SCT035 BKN045 12/10 Q1020 RMK 1ST008 3CU035 7CU045 A3014
RJCC 141315Z 21004KT 170V240 5000 -SHRA BR FEW008 SCT035 BKN050 11/10 Q1020 RMK 1ST008 3CU035 7CU050 A3013
RJCC 141330Z 22004KT 9999 -SHRA FEW008 BKN050 11/10 Q1020 RMK 1ST008 7CU050 A3013
RJCC 141400Z 20003KT 170V230 9999 -SHRA BR FEW008 BKN050 11/10 Q1020 RMK 1ST008 7CU050 A3013 5000S
RJCC 141430Z 16005KT 9999 -SHRA FEW008 BKN050 11/10 Q1020 RMK 1ST008 7CU050 A3012
RJCC 141500Z 16004KT 9999 -SHRA FEW008 BKN045 11/10 Q1019 RMK 1ST008 6CU045 A3012
RJCC 141530Z 15004KT 9999 FEW010 SCT060 BKN100 10/10 Q1019 RMK 1ST010 3CU060 6AC100 A3011
RJCC 141600Z 19003KT 9999 FEW010 SCT050 BKN070 11/10 Q1020 RMK 1ST010 3CU050 6AC070 A3012
RJCC 141630Z 18006KT 9999 -SHRA FEW010 SCT030 BKN070 11/10 Q1020 RMK 1ST010 3CU030 6AC070 A3013
RJCC 141700Z 16005KT 9999 FEW010 SCT030 10/09 Q1019 RMK 1ST010 3CU030 A3011
RJCC 141730Z 18004KT 9999 FEW010 09/09 Q1019 RMK 1ST010 A3010
-3
RJCC 141800Z 17003KT 9999 FEW015 09/08 Q1019 RMK 1ST015 A3010
RJCC 141830Z 12001KT 9999 R19R/1400VP2000U R19L/P2000N PRFG FEW015 08/08 Q1019 RMK 1ST015 A3010 FG E-SE
RJCC 141900Z VRB01KT 9999 R19R/P2000N R19L/1500VP2000U PRFG FEW015 08/08 Q1019 RMK 1ST015 A3009 FG E-SE
RJCC 141930Z 24004KT 9999 R19R/P2000N R19L/P2000N FEW005 BKN025 07/07 Q1019 RMK 1ST005 6CU025 A3010
RJCC 142000Z VRB01KT 9999 FEW010 SCT025 BKN060 09/09 Q1019 RMK 1ST010 4CU025 7CU060 A3009
RJCC 142030Z VRB01KT 9999 -SHRA FEW015 SCT060 BKN/// 09/08 Q1018 RMK 1ST015 3CU060 A3008
RJCC 142100Z 24005KT 9999 FEW015 SCT060 BKN/// 09/08 Q1019 RMK 1ST015 3CU060 A3009
RJCC 142130Z VRB01KT 9999 FEW015 SCT030 BKN/// 09/08 Q1019 RMK 1ST015 3CU030 A3009
RJCC 142200Z VRB01KT 9999 -SHRA FEW010 SCT030 BKN060 10/09 Q1019 RMK 1ST010 3CU030 6CU060 A3010
RJCC 142230Z VRB02KT 9999 -SHRA FEW010 SCT030 BKN060 11/10 Q1019 RMK 1ST010 3CU030 6CU060 A3010
RJCC 142300Z VRB01KT 9999 -SHRA FEW010 SCT030 BKN060 12/10 Q1019 RMK 1ST010 3CU030 6CU060 A3010
RJCC 142330Z 15004KT 110V180 9999 -SHRA FEW015 SCT040 BKN060 13/10 Q1019 RMK 1ST015 3CU040 6CU060 A3010
2018年10月15日00-24UTC 新千歳空港METAR -1

RJCC 150000Z 16004KT 9999 -SHRA FEW015 SCT040 BKN060 14/11 Q1019 RMK 1ST015 3CU040 6CU060 A3009
RJCC 150030Z 15008KT 120V190 9999 -SHRA FEW010 SCT025 BKN050 15/11 Q1018 RMK 1ST010 3CU025 6CU050 A3009
RJCC 150100Z 17007KT 9999 FEW010 SCT025 BKN060 15/11 Q1018 RMK 1ST010 4CU025 6CU060 A3008
RJCC 150130Z 16013KT 9999 FEW010 SCT040 16/11 Q1018 RMK 1ST010 3CU040 A3007
RJCC 150200Z 16012KT 9999 -SHRA FEW010 BKN030 16/10 Q1018 RMK 1ST010 5CU030 A3006
RJCC 150230Z 13009KT 9999 -SHRA FEW010 BKN030 18/11 Q1017 RMK 1ST010 5CU030 A3005
RJCC 150300Z 16011KT 9999 -SHRA FEW010 BKN030 17/10 Q1017 RMK 1ST010 5CU030 A3004
RJCC 150330Z 17013KT 9999 -SHRA FEW010 BKN030 16/10 Q1016 RMK 1ST010 6CU030 A3003
RJCC 150400Z 16011KT 9999 -SHRA FEW010 SCT020 BKN030 17/10 Q1016 RMK 1ST010 3CU020 5CU030 A3001
RJCC 150430Z 17012KT 9999 FEW015 SCT030 16/10 Q1016 RMK 1ST015 4CU030 A3001
RJCC 150500Z 16013KT 9999 FEW015 SCT040 17/10 Q1016 RMK 1ST015 3CU040 A3000
RJCC 150530Z 16012KT 9999 FEW020 16/10 Q1015 RMK 1CU020 A3000
RJCC 150600Z 17013KT 9999 FEW015 16/10 Q1016 RMK 1ST015 A3000
RJCC 150630Z 16011KT 9999 FEW015 SCT025 15/11 Q1016 RMK 1ST015 3CU025 A3000
RJCC 150700Z 16011KT 9999 FEW015 SCT025 15/11 Q1016 RMK 1ST015 3CU025 A3001
RJCC 150730Z 15008KT 9999 FEW015 SCT025 15/11 Q1016 RMK 1ST015 4CU025 A3002
RJCC 150800Z 14008KT 9999 -SHRA FEW015 SCT030 BKN070 14/11 Q1016 RMK 1ST015 3CU030 5AC070 A3001
RJCC 150830Z 14007KT 9999 FEW015 BKN090 14/11 Q1016 RMK 1ST015 5AC090 A3000
RJCC 150900Z 13006KT 9999 FEW015 BKN090 14/11 Q1016 RMK 1ST015 5AC090 A3001
RJCC 150930Z 12006KT 9999 FEW015 SCT090 13/11 Q1016 RMK 1ST015 4AC090 A3001
RJCC 151000Z 14007KT 9999 FEW015 SCT080 12/11 Q1016 RMK 1ST015 4AC080 A3001
RJCC 151030Z 15006KT 9999 FEW015 SCT080 11/10 Q1016 RMK 1ST015 4AC080 A3000
RJCC 151100Z 16005KT 9999 FEW015 SCT080 11/10 Q1016 RMK 1ST015 3AC080 A3000
RJCC 151130Z 17004KT 9999 FEW015 SCT080 11/10 Q1015 RMK 1ST015 3AC080 A3000
-2
RJCC 151200Z 16006KT 9999 FEW015 10/09 Q1015 RMK 1ST015 A2999
RJCC 151230Z 17004KT 9999 R19R/P2000N R19L/P2000N FEW010 10/09 Q1015 RMK 1ST010 A2999
RJCC 151300Z 20003KT 9999 FEW015 10/10 Q1015 RMK 1ST015 A3000
RJCC 151330Z 16006KT 9999 FEW015 09/08 Q1015 RMK 1ST015 A2999
RJCC 151400Z 16006KT 9999 FEW015 09/09 Q1015 RMK 1ST015 A2998
RJCC 151430Z 15004KT 9999 FEW015 09/08 Q1015 RMK 1ST015 A2997
RJCC 151500Z 15004KT 9999 FEW015 09/08 Q1014 RMK 1ST015 A2997
RJCC 151530Z 13005KT 9999 FEW015 09/08 Q1014 RMK 1ST015 A2997
RJCC 151600Z 16005KT 9999 FEW015 09/08 Q1014 RMK 1ST015 A2996
RJCC 151630Z VRB01KT 9999 FEW015 SCT100 09/08 Q1014 RMK 1ST015 4AC100 A2996
RJCC 151700Z 14003KT 9999 FEW015 SCT100 10/08 Q1014 RMK 1ST015 3AC100 A2995
RJCC 151730Z VRB01KT 9999 FEW015 SCT100 09/08 Q1014 RMK 1ST015 3AC100 A2995
RJCC 151800Z 23003KT 180V250 9999 FEW015 SCT060 BKN100 09/08 Q1014 RMK 1ST015 3CU060 5AC100 A2995
RJCC 151830Z 24006KT 9999 -SHRA FEW015 SCT025 BKN050 09/08 Q1014 RMK 1ST015 4CU025 6CU050 A2996
RJCC 151900Z VRB02KT 9999 FEW015 SCT100 09/08 Q1014 RMK 1ST015 4AC100 A2994
RJCC 151930Z VRB02KT 9999 R01L/P2000N R19L/P2000N FEW001 SCT004 09/08 Q1014 RMK 2ST001 3ST004 A2995
RJCC 152000Z 23002KT 9999 R01L/P2000N R19L/P2000N FEW002 08/07 Q1014 RMK 1ST002 A2995
RJCC 152030Z 32006KT 9999 PRFG FEW002 BKN080 08/08 Q1014 RMK 1ST002 5AC080 A2995 FG E
-3
RJCC 152100Z 34004KT 9999 PRFG FEW002 SCT080 08/08 Q1014 RMK 1ST002 4AC080 A2995 2000NE-E FG NE-E
RJCC 152111Z 34004KT 9999 R19R///// R19L/0400VP2000D PRFG FEW002 SCT080 08/08 Q1014 RMK 1ST002 4AC080 A2995 1000NE-E FG NE-E
RJCC 152112Z 34004KT 9999 R19R///// R19L/0350VP2000D PRFG FEW002 BKN080 08/08 Q1014 RMK 1ST002 5AC080 A2996 1000NE-E FG NE-E
RJCC 152115Z 34003KT 9999 R19R///// R19L/0350V1300D PRFG FEW002 BKN080 08/08 Q1014 RMK 1ST002 5AC080 A2996 1000NE-E FG NE-E
RJCC 152130Z 33004KT 9999 R01L/P2000N R01R/P2000N PRFG FEW002 BKN080 09/08 Q1014 RMK 1ST002 5AC080 A2996 1000NE-E FG NE-E
RJCC 152200Z 03002KT 9999 PRFG FEW002 SCT080 09/09 Q1014 RMK 1ST002 3AC080 A2996 FG NE-E
RJCC 152230Z 35003KT 9999 PRFG FEW002 11/10 Q1014 RMK 1ST002 A2995 FG E
RJCC 152300Z VRB02KT 9999 FEW005 12/10 Q1014 RMK 1ST005 A2996
RJCC 152330Z 32003KT 270V360 9999 FEW010 13/10 Q1014 RMK 1ST010 A2995
2018年10月16日00-24UTC 新千歳空港METAR -1

RJCC 160000Z 34004KT 290V020 9999 FEW020 14/10 Q1014 RMK 1CU020 A2995
RJCC 160030Z 36004KT 300V040 9999 FEW020 15/09 Q1013 RMK 1CU020 A2994
RJCC 160100Z 35005KT 300V040 9999 FEW020 SCT050 15/08 Q1013 RMK 1CU020 4CU050 A2993
RJCC 160130Z 35005KT 310V040 9999 FEW020 16/08 Q1013 RMK 1CU020 A2991
RJCC 160200Z 30004KT 270V360 9999 FEW020 BKN050 16/08 Q1012 RMK 1CU020 5CU050 A2990
RJCC 160230Z 34010KT 9999 FEW020 BKN050 15/07 Q1012 RMK 1CU020 5CU050 A2989
RJCC 160300Z 36008KT 330V040 9999 FEW020 SCT050 BKN080 15/07 Q1011 RMK 1CU020 4CU050 5AC080 A2988
RJCC 160316Z 30010KT 9999 FEW020 SCT050 BKN080 15/07 Q1012 RMK 1CU020 4CU050 5AC080 A2989
RJCC 160330Z 35007KT 320V030 9999 FEW020 SCT030 FEW030CB BKN050 16/07 Q1011 RMK 1CU020 4CU030 1CB030 5CU050 A2988 CB 10KM W MOV NE
RJCC 160400Z 36005KT 310V030 9999 -SHRA FEW020 SCT030 FEW030CB BKN050 13/08 Q1011 RMK 1CU020 3CU030 1CB030 5CU050 A2987 MOD TURB OBS AT 0354Z 20NM E CHE BTN 6000FT AND 10000FT IN CMB DH8D CB 5KM NE MOV NE
RJCC 160430Z 33003KT 270V360 9999 FEW020 BKN040 14/09 Q1011 RMK 1CU020 5CU040 A2987
RJCC 160500Z VRB01KT 9999 FEW020 BKN040 14/08 Q1011 RMK 1CU020 5CU040 A2986
RJCC 160530Z 09003KT 9999 -SHRA FEW015 SCT035 BKN060 14/09 Q1011 RMK 1ST015 3CU035 6CU060 A2986
RJCC 160534Z VRB02KT 9999 R01L/P2000N R01R/P2000N SHRA FEW015 SCT035 BKN060 14/09 Q1011 RMK 1ST015 3CU035 6CU060 A2987
RJCC 160547Z 11004KT 9999 -SHRA FEW015 SCT035 BKN060 15/09 Q1011 RMK 1ST015 3CU035 6CU060 A2985
RJCC 160600Z 09003KT 040V220 9999 -SHRA FEW010 BKN030 FEW030CB 14/09 Q1011 RMK 1ST010 6CU030 1CB030 A2986 CB 30KM W MOV E LIGHTNING W
RJCC 160608Z 02004KT 360V080 9999 -TSRA FEW010 BKN030 FEW030CB 14/10 Q1011 RMK 1ST010 6CU030 2CB030 A2986 FBL TS 10KM W MOV E
RJCC 160623Z 34008KT 9999 R01L/P2000N R01R/P2000N TSRA FEW010 BKN030 FEW030CB 13/11 Q1011 RMK 1ST010 6CU030 2CB030 A2986 MOD TS OHD MOV E
-2
RJCC 160625Z 34009KT 9999 R01L/P2000N R01R/P2000N +TSRA FEW010 BKN030 FEW030CB 13/10 Q1011 RMK 1ST010 6CU030 2CB030 A2986 MOD TS OHD MOV E
RJCC 160630Z 34007KT 310V020 9999 R01L/0900VP2000D R01R/2000N +TSRA FEW005 BKN030 FEW030CB 13/10 Q1011 RMK 1ST005 6CU030 2CB030 A2986 MOD TS OHD MOV E
RJCC 160635Z 35005KT 310V020 9999 R01L/0900VP2000U R01R/2000N SHRA FEW005 BKN030 FEW030CB 13/10 Q1011 RMK 1ST005 6CU030 2CB030 A2986 CB 5KM NE MOV E
RJCC 160700Z 04003KT 330V080 9999 -SHRA FEW005 BKN030 FEW030CB 12/10 Q1011 RMK 1ST005 6CU030 1CB030 A2987 CB 5KM W AND 20KM E MOV E
RJCC 160730Z VRB02KT 9999 -SHRA FEW005 BKN030 FEW030CB 12/10 Q1011 RMK 1ST005 5CU030 1CB030 A2986 CB 20KM E MOV E
RJCC 160800Z VRB02KT 9999 FEW005 12/09 Q1011 RMK 1ST005 A2986
RJCC 160830Z 25003KT 190V330 9999 R01L/P2000N R01R/1200VP2000N MIFG FEW005 SCT/// 10/10 Q1011 RMK 1ST005 A2987
RJCC 160900Z 25005KT 9999 R19R/P2000N R19L/P2000N PRFG FEW003 SCT/// 11/09 Q1011 RMK 1ST003 A2988 4000E
RJCC 160930Z 24003KT 200V280 9999 FEW003 09/08 Q1012 RMK 1ST003 A2988
RJCC 160948Z 08004KT 050V110 9999 R19R/P2000N R19L/0900VP2000D FEW003 09/08 Q1011 RMK 1ST003 A2988
RJCC 161000Z 10003KT 070V150 9999 R19R/1600VP2000N R19L/2000D FEW003 08/08 Q1012 RMK 1ST003 A2988
RJCC 161030Z VRB02KT 9999 FEW003 SCT100 08/08 Q1012 RMK 1ST003 3AC100 A2988
RJCC 161100Z 32005KT 260V340 9999 FEW003 SCT050 09/08 Q1011 RMK 1ST003 3CU050 A2988
RJCC 161130Z 02003KT 350V060 9999 FEW003 SCT050 08/08 Q1012 RMK 1ST003 4CU050 A2989
RJCC 161200Z 35003KT 9999 FEW003 BKN050 09/08 Q1012 RMK 1ST003 6CU050 A2989
RJCC 161230Z 32005KT 9999 FEW003 BKN045 09/08 Q1012 RMK 1ST003 7CU045 A2990
RJCC 161300Z 35003KT 9999 FEW005 BKN050 09/08 Q1012 RMK 1ST005 7CU050 A2990
RJCC 161330Z 01006KT 9999 FEW005 SCT050 BKN070 09/07 Q1012 RMK 1ST005 3CU050 7AC070 A2989
RJCC 161400Z 07003KT 050V110 9999 FEW005 SCT080 08/06 Q1012 RMK 1ST005 3AC080 A2989
RJCC 161430Z 03005KT 9999 FEW005 SCT080 07/06 Q1012 RMK 1ST005 3AC080 A2989
-3
RJCC 161500Z 00000KT 9999 FEW005 07/06 Q1011 RMK 1ST005 A2988
RJCC 161530Z 23003KT 9999 R19R/P2000N R19L/P2000N FEW003 06/06 Q1011 RMK 1ST003 A2988
RJCC 161600Z VRB02KT 9999 R19R/P2000N R19L/1400VP2000D FEW003 06/05 Q1012 RMK 1ST003 A2990
RJCC 161630Z 25002KT 9999 FEW003 05/05 Q1012 RMK 1ST003 A2989
RJCC 161700Z 35003KT 320V030 9999 FEW003 04/04 Q1012 RMK 1ST003 A2989
RJCC 161730Z 28003KT 150V310 9999 FEW003 04/04 Q1012 RMK 1ST003 A2988
RJCC 161800Z 21002KT 9999 FEW003 SCT/// 03/03 Q1012 RMK 1ST003 A2988
RJCC 161830Z 02003KT 9999 FEW003 SCT/// 03/03 Q1012 RMK 1ST003 A2989
RJCC 161900Z VRB01KT 9999 FEW003 SCT/// 03/03 Q1012 RMK 1ST003 A2989
RJCC 161930Z 25003KT 9999 FEW003 SCT/// 03/02 Q1012 RMK 1ST003 A2989
RJCC 162000Z 31003KT 270V340 9999 FEW003 SCT/// 02/02 Q1012 RMK 1ST003 A2989
RJCC 162030Z VRB01KT 9999 R19R/P2000N R19L/P2000N PRFG FEW003 SCT/// 02/02 Q1012 RMK 1ST003 A2989 1500SE FG E-SE
RJCC 162100Z VRB01KT 9999 PRFG FEW003 BKN/// 02/02 Q1012 RMK 1ST003 A2989 3000E FG NE-SE
RJCC 162130Z VRB02KT 9999 R19R/P2000N R19L/P2000N PRFG FEW003 BKN/// 01/01 Q1012 RMK 1ST003 A2990 1500E FG E-SE
RJCC 162200Z VRB02KT 9999 R19R/P2000N R19L/P2000N PRFG FEW003 SCT/// 02/02 Q1012 RMK 1ST003 A2990 1500E FG E-SE
RJCC 162230Z VRB02KT 9999 R19R/P2000N R19L/P2000N PRFG FEW003 05/04 Q1012 RMK 1ST003 A2990 1500E FG E-SE
RJCC 162300Z 13004KT 9999 PRFG FEW005 06/05 Q1012 RMK 1ST005 A2991 3000SE
RJCC 162330Z 14003KT 110V180 9999 FEW010 08/03 Q1012 RMK 1ST010 A2991
2018年10月17日00-24UTC 新千歳空港METAR -1

RJCC 170000Z 11004KT 070V140 9999 FEW010 10/04 Q1012 RMK 1ST010 A2991
RJCC 170030Z VRB02KT 9999 FEW020 11/03 Q1012 RMK 1CU020 A2990
RJCC 170100Z VRB02KT 9999 FEW020 12/02 Q1012 RMK 1CU020 A2989
RJCC 170130Z VRB03KT 9999 FEW020 12/01 Q1012 RMK 1CU020 A2990
RJCC 170200Z 35005KT 300V030 9999 FEW020 BKN050 13/01 Q1012 RMK 1CU020 5CU050 A2989
RJCC 170230Z 01005KT 330V070 9999 FEW020 BKN050 13/02 Q1012 RMK 1CU020 6CU050 A2989
RJCC 170300Z VRB02KT 9999 FEW020 BKN060 13/02 Q1011 RMK 1CU020 6CU060 A2988
RJCC 170330Z 01008KT 320V040 9999 FEW020 BKN060 13/02 Q1011 RMK 1CU020 6CU060 A2988
RJCC 170400Z 01008KT 9999 FEW025 BKN060 13/04 Q1011 RMK 1CU025 5CU060 A2988
RJCC 170430Z 02007KT 340V050 9999 FEW025 BKN060 12/03 Q1011 RMK 1CU025 6CU060 A2988
RJCC 170500Z 02008KT 340V050 9999 FEW025 BKN060 13/03 Q1011 RMK 1CU025 6CU060 A2988
RJCC 170530Z 36009KT 330V030 9999 FEW025 BKN060 13/03 Q1012 RMK 1CU025 6CU060 A2989
RJCC 170600Z 35009KT 9999 FEW025 BKN050 13/04 Q1012 RMK 1CU025 6CU050 A2989
RJCC 170630Z 36005KT 9999 FEW025 BKN050 BKN070 12/03 Q1012 RMK 1CU025 5CU050 6AC070 A2990
RJCC 170700Z 34008KT 9999 -SHRA FEW025 BKN045 12/03 Q1012 RMK 1CU025 6CU045 A2990
RJCC 170730Z 36006KT 9999 -SHRA FEW025 BKN045 12/05 Q1012 RMK 1CU025 6CU045 A2991
RJCC 170800Z 36005KT 9999 FEW025 BKN045 11/05 Q1013 RMK 1CU025 5CU045 A2992
RJCC 170830Z 36006KT 9999 FEW025 BKN045 11/05 Q1013 RMK 1CU025 5CU045 A2993
RJCC 170900Z 01005KT 9999 FEW020 SCT045 10/05 Q1013 RMK 1CU020 4CU045 A2994
RJCC 170930Z 02004KT 9999 FEW020 SCT045 09/05 Q1014 RMK 1CU020 4CU045 A2994
RJCC 171000Z 03004KT 9999 FEW020 SCT045 09/05 Q1014 RMK 1CU020 3CU045 A2995
RJCC 171030Z 03004KT 9999 FEW020 BKN050 08/05 Q1014 RMK 1CU020 5CU050 A2995
RJCC 171100Z VRB02KT 9999 FEW020 08/05 Q1014 RMK 1CU020 A2995
RJCC 171130Z 35003KT 9999 FEW020 06/04 Q1014 RMK 1CU020 A2995
RJCC 171200Z 25005KT 9999 FEW020 05/04 Q1014 RMK 1CU020 A2996
RJCC 171230Z 26004KT 9999 FEW020 04/02 Q1014 RMK 1CU020 A2996
-2
RJCC 171300Z 00000KT 9999 FEW020 05/04 Q1014 RMK 1CU020 A2997
RJCC 171330Z VRB02KT 9999 FEW020 04/03 Q1014 RMK 1CU020 A2997
RJCC 171400Z VRB02KT 9999 FEW020 04/03 Q1014 RMK 1CU020 A2997
RJCC 171430Z VRB02KT 9999 FEW020 BKN050 04/03 Q1014 RMK 1CU020 5CU050 A2996
RJCC 171500Z 15003KT 9999 FEW020 BKN060 04/03 Q1014 RMK 1CU020 5CU060 A2995
RJCC 171530Z VRB02KT 9999 FEW020 SCT060 03/03 Q1014 RMK 1CU020 3CU060 A2995
RJCC 171600Z 17003KT 9999 FEW020 03/02 Q1014 RMK 1CU020 A2996
RJCC 171630Z VRB01KT 9999 FEW020 SCT060 03/02 Q1014 RMK 1CU020 4CU060 A2997
RJCC 171700Z 11003KT 9999 FEW020 03/02 Q1014 RMK 1CU020 A2996
RJCC 171730Z 21002KT 9999 FEW020 03/02 Q1014 RMK 1CU020 A2995
RJCC 171800Z 11002KT 9999 FEW020 02/02 Q1014 RMK 1CU020 A2995
RJCC 171830Z 15002KT 9999 FEW020 SCT050 02/01 Q1014 RMK 1CU020 3CU050 A2995
RJCC 171900Z 18002KT 9999 FEW020 SCT050 02/01 Q1014 RMK 1CU020 3CU050 A2996
RJCC 171930Z 15003KT 9999 FEW020 02/01 Q1014 RMK 1CU020 A2996
RJCC 172000Z 16003KT 9999 FEW020 02/01 Q1014 RMK 1CU020 A2997
RJCC 172030Z 18004KT 9999 FEW020 BKN050 02/01 Q1014 RMK 1CU020 5CU050 A2997
RJCC 172100Z VRB01KT 9999 FEW020 BKN050 03/03 Q1015 RMK 1CU020 5CU050 A2998
RJCC 172130Z VRB01KT 9999 -SHRA FEW020 BKN045 04/04 Q1015 RMK 1CU020 7CU045 A2999
RJCC 172200Z 17003KT 9999 -SHRA FEW020 BKN045 05/04 Q1015 RMK 1CU020 6CU045 A3000
RJCC 172230Z VRB01KT 9999 FEW020 SCT050 06/05 Q1016 RMK 1CU020 3CU050 A3000
RJCC 172300Z 17004KT 150V230 9999 FEW030 08/06 Q1016 RMK 1CU030 A3001
RJCC 172330Z VRB02KT 9999 FEW020 11/06 Q1016 RMK 1CU020 A3000
2018年10月18日00-24UTC 新千歳空港METAR -1

RJCC 180000Z VRB03KT 9999 FEW020 12/04 Q1016 RMK 1CU020 A3001
RJCC 180030Z 33014KT 9999 FEW030 BKN050 14/01 Q1016 RMK 1CU030 6CU050 A3001
RJCC 180100Z 01010KT 9999 FEW030 SCT050 13/05 Q1016 RMK 1CU030 4CU050 A3001
RJCC 180130Z 01011KT 9999 FEW030 SCT050 13/05 Q1016 RMK 1CU030 3CU050 A3002
RJCC 180200Z 35010KT 9999 FEW030 SCT060 12/05 Q1016 RMK 1CU030 4CU060 A3002
RJCC 180230Z 36009KT 9999 FEW030 SCT060 13/05 Q1016 RMK 1CU030 3CU060 A3002
RJCC 180300Z 35009KT 310V010 9999 FEW030 SCT050 14/04 Q1016 RMK 1CU030 4CU050 A3001
RJCC 180330Z 01012KT 9999 FEW030 SCT045 13/04 Q1016 RMK 1CU030 3CU045 A3001
RJCC 180400Z 36014KT 9999 FEW030 SCT045 14/04 Q1016 RMK 1CU030 3CU045 A3002
RJCC 180430Z 36015KT 9999 FEW030 SCT040 14/04 Q1016 RMK 1CU030 3CU040 A3002
RJCC 180500Z 35015KT 9999 FEW030 13/04 Q1016 RMK 1CU030 A3003
RJCC 180530Z 36016KT 9999 FEW030 13/03 Q1016 RMK 1CU030 A3003
RJCC 180600Z 35016KT 9999 FEW030 SCT060 13/03 Q1017 RMK 1CU030 3CU060 A3004
RJCC 180630Z 35015KT 9999 FEW030 12/02 Q1017 RMK 1CU030 A3005
RJCC 180700Z 35012KT 9999 FEW030 12/02 Q1018 RMK 1CU030 A3006
RJCC 180730Z 35009KT 9999 FEW030 11/02 Q1018 RMK 1CU030 A3007
RJCC 180800Z 35008KT 9999 FEW030 09/02 Q1018 RMK 1CU030 A3008
RJCC 180830Z 35006KT 9999 FEW030 09/03 Q1019 RMK 1CU030 A3010
RJCC 180900Z 35004KT 9999 FEW030 08/03 Q1019 RMK 1CU030 A3011
RJCC 180930Z 33006KT 9999 FEW030 08/03 Q1020 RMK 1CU030 A3012
RJCC 181000Z 36004KT 9999 FEW030 07/02 Q1020 RMK 1CU030 A3013
RJCC 181030Z 34004KT 9999 FEW030 07/02 Q1020 RMK 1CU030 A3013
RJCC 181100Z 35003KT 290V050 9999 FEW030 07/03 Q1020 RMK 1CU030 A3014
RJCC 181130Z VRB02KT 9999 FEW030 06/03 Q1020 RMK 1CU030 A3014
RJCC 181200Z 31004KT 9999 FEW030 05/02 Q1021 RMK 1CU030 A3015
RJCC 181230Z 02002KT 9999 FEW030 05/03 Q1021 RMK 1CU030 A3016
RJCC 181300Z 32003KT 9999 FEW030 04/02 Q1021 RMK 1CU030 A3017
RJCC 181330Z 33003KT 9999 FEW030 04/02 Q1021 RMK 1CU030 A3017
RJCC 181400Z 32004KT 9999 FEW030 04/02 Q1021 RMK 1CU030 A3017
-2
RJCC 181430Z 33003KT 9999 FEW030 03/02 Q1021 RMK 1CU030 A3017
RJCC 181500Z VRB02KT 9999 FEW030 03/02 Q1021 RMK 1CU030 A3017
RJCC 181530Z 33002KT 9999 FEW030 03/02 Q1022 RMK 1CU030 A3018
RJCC 181600Z 34003KT 9999 FEW030 02/01 Q1022 RMK 1CU030 A3018
RJCC 181630Z 34002KT 9999 FEW030 02/01 Q1022 RMK 1CU030 A3018
RJCC 181700Z 35002KT 9999 FEW030 02/00 Q1022 RMK 1CU030 A3018
RJCC 181730Z 33003KT 200V340 9999 FEW030 02/01 Q1022 RMK 1CU030 A3018
RJCC 181800Z 35003KT 9999 FEW030 01/M00 Q1022 RMK 1CU030 A3018
RJCC 181830Z 01003KT 9999 FEW030 02/01 Q1022 RMK 1CU030 A3018
RJCC 181900Z 05002KT 9999 FEW001 01/00 Q1022 RMK 2ST001 A3018
RJCC 181930Z 34004KT 8000 R19R/0550V1000N R19L/1100VP2000N PRFG BKN001 00/M00 Q1022 RMK 5ST001 A3019 1200E
RJCC 182000Z 34002KT 8000 R19R///// R19L/0650V1100U PRFG BKN001 00/M01 Q1022 RMK 5ST001 A3019 1000E FG NE-E
RJCC 182022Z 33003KT 9999 R19R/2000N R19L/1000VP2000U PRFG SCT001 00/M01 Q1022 RMK 4ST001 A3019 1200E FG NE-SE
RJCC 182024Z 33003KT 9999 R19R/2000N R19L/1100VP2000U PRFG FEW001 00/M00 Q1022 RMK 2ST001 A3019 1200E FG NE-SE
RJCC 182030Z 35003KT 9999 R19R/1400VP2000D R19L/1900N BCFG FEW001 M00/M01 Q1022 RMK 1ST001 A3019 1200E
RJCC 182100Z 35003KT 9999 R19R/0800VP2000D R19L/1300VP2000D PRFG FEW001 M00/M01 Q1022 RMK 2ST001 A3019 1200NE FG NE-SE
RJCC 182105Z 35003KT 8000 R19R///// R19L/0550VP2000D FZFG BKN001 M01/M01 Q1022 RMK 5ST001 A3019 0900NE-E
RJCC 182109Z 35003KT 4900 R19R///// R19L/0450VP2000D FZFG BKN001 M01/M01 Q1022 RMK 6ST001 A3019 0900NE-E
RJCC 182113Z 35003KT 0900 R19R///// R19L/0450V0800N FZFG VV001 M00/M01 Q1022 RMK A3019 5000S
RJCC 182118Z 35003KT 0900 R01L/P2000N R01R/0750VP2000D FZFG VV001 M01/M01 Q1022 RMK A3019 3000S
RJCC 182130Z 35004KT 0900 R01L/P2000N R01R/1100VP2000D FZFG VV001 M00/M00 Q1022 RMK A3019 5000S
RJCC 182139Z 34004KT 3200 R01L/P2000N R01R/1200VP2000N PRFG BR FEW001 00/00 Q1022 RMK 2ST001 A3019 1200NE-E FG NE-SE
-3
RJCC 182200Z 34003KT 5000 R01L/P2000N R01R/P2000N BCFG BR FEW001 01/01 Q1022 RMK 2ST001 A3020 1500W
RJCC 182230Z 33004KT 8000 FEW001 04/02 Q1022 RMK 1ST001 A3020
RJCC 182300Z 33003KT 9999 FEW025 05/03 Q1022 RMK 1CU025 A3020
RJCC 182330Z 34003KT 290V020 9999 FEW025 07/03 Q1022 RMK 1CU025 A3020
2018年10月18日00-24UTC 新千歳空港METAR -1

RJCC 190000Z 32005KT 270V350 9999 FEW030 09/04 Q1022 RMK 1CU030 A3020
RJCC 190030Z 33004KT 290V010 9999 FEW030 10/04 Q1022 RMK 1CU030 A3020
RJCC 190100Z VRB01KT 9999 FEW030 11/04 Q1022 RMK 1CU030 A3019
RJCC 190130Z VRB02KT 9999 FEW030 12/02 Q1022 RMK 1CU030 A3019
RJCC 190200Z 04004KT 010V080 9999 FEW030 13/01 Q1022 RMK 1CU030 A3018
RJCC 190230Z VRB03KT 9999 FEW030 13/01 Q1021 RMK 1CU030 A3017
RJCC 190300Z VRB03KT 9999 FEW030 14/01 Q1021 RMK 1CU030 A3016
RJCC 190330Z 02005KT 300V100 9999 FEW040 14/01 Q1020 RMK 1CU040 A3014
RJCC 190400Z 35003KT 280V050 9999 FEW040 14/01 Q1020 RMK 1CU040 A3013
RJCC 190430Z VRB04KT 9999 FEW040 15/01 Q1020 RMK 1CU040 A3012
RJCC 190500Z VRB03KT 9999 FEW040 15/01 Q1020 RMK 1CU040 A3012
RJCC 190530Z VRB02KT 9999 FEW040 15/01 Q1019 RMK 1CU040 A3012
RJCC 190600Z 03003KT 330V080 9999 FEW040 15/M02 Q1019 RMK 1CU040 A3012
RJCC 190630Z 05004KT 9999 FEW040 14/03 Q1019 RMK 1CU040 A3012
RJCC 190700Z 21004KT 9999 FEW040 13/03 Q1019 RMK 1CU040 A3011
RJCC 190730Z 21004KT 9999 FEW040 SCT/// 12/03 Q1019 RMK 1CU040 A3011
RJCC 190800Z 19003KT 170V230 9999 FEW040 SCT/// 10/04 Q1019 RMK 1CU040 A3011
RJCC 190830Z VRB02KT 9999 FEW040 SCT/// 10/04 Q1019 RMK 1CU040 A3011
RJCC 190900Z VRB02KT 9999 FEW040 SCT/// 08/04 Q1020 RMK 1CU040 A3013
RJCC 190930Z VRB02KT 9999 FEW020 SCT/// 06/03 Q1020 RMK 1CU020 A3013
RJCC 191000Z 19003KT 140V240 9999 FEW020 SCT/// 07/04 Q1020 RMK 1CU020 A3013
RJCC 191030Z VRB01KT 9999 FEW020 SCT/// 06/04 Q1020 RMK 1CU020 A3013
RJCC 191100Z 14002KT 9999 FEW020 SCT/// 05/04 Q1020 RMK 1CU020 A3013
RJCC 191130Z VRB01KT 9999 FEW020 05/04 Q1020 RMK 1CU020 A3014
RJCC 191200Z 19002KT 9999 FEW020 04/03 Q1020 RMK 1CU020 A3014
RJCC 191230Z VRB01KT 9999 FEW020 04/03 Q1021 RMK 1CU020 A3015
RJCC 191300Z 20002KT 9999 FEW020 04/02 Q1020 RMK 1CU020 A3015
RJCC 191330Z VRB01KT 9999 FEW020 04/02 Q1020 RMK 1CU020 A3014
RJCC 191400Z VRB01KT 9999 FEW020 02/01 Q1020 RMK 1CU020 A3014
-2
RJCC 191430Z 33003KT 9999 FEW020 02/01 Q1020 RMK 1CU020 A3014
RJCC 191500Z 03002KT 9999 FEW020 02/01 Q1020 RMK 1CU020 A3014
RJCC 191530Z 32003KT 9999 FEW020 02/01 Q1020 RMK 1CU020 A3014
RJCC 191600Z VRB02KT 9999 FEW020 02/00 Q1020 RMK 1CU020 A3015
RJCC 191630Z 33003KT 9999 FEW020 02/00 Q1021 RMK 1CU020 A3015
RJCC 191700Z 33002KT 9999 PRFG FEW010 02/00 Q1021 RMK 1ST010 A3015 FG E-SE
RJCC 191730Z 35003KT 9999 PRFG FEW010 02/00 Q1020 RMK 1ST010 A3014 FG E-SE
RJCC 191800Z 35004KT 9999 PRFG FEW010 01/M00 Q1020 RMK 1ST010 A3014 FG SE
RJCC 191830Z 33003KT 9999 PRFG FEW010 01/M01 Q1020 RMK 1ST010 A3014 FG SE
RJCC 191900Z VRB01KT 9999 PRFG FEW010 01/00 Q1020 RMK 1ST010 A3013 FG SE
RJCC 191930Z 34003KT 9999 PRFG FEW010 01/00 Q1020 RMK 1ST010 A3013 FG E-SE
RJCC 192000Z VRB01KT 9999 PRFG FEW010 01/M00 Q1020 RMK 1ST010 A3013 FG E-SE
RJCC 192030Z 32002KT 9999 PRFG FEW020 01/M01 Q1020 RMK 1CU020 A3013 FG E-SE
RJCC 192100Z 35002KT 9999 PRFG FEW020 01/M01 Q1020 RMK 1CU020 A3013 FG E-SE
RJCC 192130Z 36002KT 9999 PRFG FEW020 01/M01 Q1020 RMK 1CU020 A3013 FG E-SE
RJCC 192200Z 36002KT 9999 PRFG FEW020 02/M00 Q1020 RMK 1CU020 A3013 FG E-SE
RJCC 192230Z VRB02KT 9999 FEW020 04/02 Q1020 RMK 1CU020 A3014
RJCC 192300Z VRB02KT 9999 FEW020 06/03 Q1020 RMK 1CU020 A3014
RJCC 192330Z VRB01KT 9999 FEW025 08/03 Q1020 RMK 1CU025 A3014
2018年10月20日00-24UTC 新千歳空港METAR -1

RJCC 200000Z 15004KT 120V200 9999 FEW030 11/06 Q1020 RMK 1CU030 A3013
RJCC 200030Z 18005KT 9999 FEW030 12/06 Q1020 RMK 1CU030 A3012
RJCC 200100Z 17004KT 140V200 9999 FEW030 14/06 Q1019 RMK 1CU030 A3011
RJCC 200130Z 16004KT 130V200 9999 FEW030 14/05 Q1019 RMK 1CU030 A3010
RJCC 200200Z 17003KT 080V240 9999 FEW030 15/06 Q1019 RMK 1CU030 A3009
RJCC 200230Z VRB03KT 9999 FEW030 15/04 Q1018 RMK 1CU030 A3007
RJCC 200300Z 10003KT 030V180 9999 FEW030 16/05 Q1018 RMK 1CU030 A3006
RJCC 200330Z VRB02KT 9999 FEW030 17/05 Q1017 RMK 1CU030 A3005
RJCC 200400Z 22006KT 170V250 9999 FEW030 16/04 Q1017 RMK 1CU030 A3004
RJCC 200430Z 19008KT 150V210 9999 FEW030 16/04 Q1017 RMK 1CU030 A3003
RJCC 200500Z 18009KT 9999 FEW030 16/05 Q1017 RMK 1CU030 A3004
RJCC 200530Z 19008KT 9999 FEW030 SCT040 16/04 Q1017 RMK 1CU030 3CU040 A3004
RJCC 200600Z 22008KT 9999 FEW030 SCT040 BKN080 15/05 Q1017 RMK 1CU030 3CU040 5AC080 A3005
RJCC 200630Z 23007KT 190V250 9999 FEW030 SCT040 BKN080 15/05 Q1017 RMK 1CU030 3CU040 5AC080 A3005
RJCC 200700Z VRB02KT 9999 FEW030 SCT080 15/05 Q1018 RMK 1CU030 3AC080 A3006
RJCC 200730Z 19003KT 110V220 9999 FEW030 BKN/// 14/05 Q1017 RMK 1CU030 A3006
RJCC 200800Z VRB02KT 9999 FEW030 SCT050 BKN/// 13/06 Q1018 RMK 1CU030 3CU050 A3007
RJCC 200830Z 33004KT 9999 FEW030 SCT060 13/07 Q1018 RMK 1CU030 3CU060 A3007
RJCC 200900Z 01003KT 350V070 9999 FEW030 SCT060 12/06 Q1018 RMK 1CU030 3CU060 A3008
RJCC 200930Z 03003KT 9999 FEW030 11/06 Q1018 RMK 1CU030 A3008
RJCC 201000Z 03002KT 9999 FEW030 10/06 Q1018 RMK 1CU030 A3008
RJCC 201030Z 30004KT 260V010 9999 FEW030 09/07 Q1018 RMK 1CU030 A3009
RJCC 201100Z VRB02KT 9999 FEW030 08/06 Q1019 RMK 1CU030 A3009
RJCC 201130Z VRB01KT 9999 FEW030 08/06 Q1019 RMK 1CU030 A3010
RJCC 201200Z VRB01KT 9999 FEW030 06/05 Q1019 RMK 1CU030 A3010
RJCC 201230Z 06002KT 9999 FEW030 06/05 Q1019 RMK 1CU030 A3010
RJCC 201300Z 10002KT 9999 FEW030 05/05 Q1019 RMK 1CU030 A3010
RJCC 201330Z 00000KT 9999 FEW030 05/05 Q1019 RMK 1CU030 A3010
-2
RJCC 201400Z 00000KT 9999 FEW030 04/04 Q1019 RMK 1CU030 A3010
RJCC 201430Z 09001KT 9999 FEW030 04/04 Q1019 RMK 1CU030 A3009
RJCC 201500Z VRB01KT 9999 FEW030 04/03 Q1019 RMK 1CU030 A3009
RJCC 201530Z 16001KT 9999 FEW030 03/02 Q1019 RMK 1CU030 A3009
RJCC 201600Z 00000KT 9999 FEW030 03/02 Q1019 RMK 1CU030 A3009
RJCC 201630Z 18001KT 9999 FEW030 03/02 Q1019 RMK 1CU030 A3009
RJCC 201700Z 20001KT 9999 FEW030 03/02 Q1019 RMK 1CU030 A3009
RJCC 201730Z 16001KT 9999 FEW030 01/00 Q1019 RMK 1CU030 A3009
RJCC 201800Z 00000KT 9999 FEW004 02/01 Q1019 RMK 1ST004 A3009
RJCC 201830Z VRB01KT 9999 FEW010 02/01 Q1019 RMK 1ST010 A3009
RJCC 201900Z 18002KT 9999 FEW010 01/00 Q1019 RMK 1ST010 A3009
RJCC 201930Z 17002KT 9999 FEW010 01/M00 Q1019 RMK 1ST010 A3010
RJCC 202000Z 16002KT 9999 FEW010 01/00 Q1019 RMK 1ST010 A3010
RJCC 202030Z 18002KT 9999 FEW010 01/M00 Q1019 RMK 1ST010 A3010
RJCC 202100Z 18003KT 160V220 9999 FEW010 01/M00 Q1019 RMK 1ST010 A3010
RJCC 202130Z 00000KT 9999 FEW010 01/00 Q1019 RMK 1ST010 A3011
RJCC 202200Z VRB01KT 9999 FEW010 02/01 Q1019 RMK 1ST010 A3012
RJCC 202230Z 21002KT 9999 FEW015 05/04 Q1020 RMK 1ST015 A3012
RJCC 202300Z 16003KT 9999 FEW040 07/05 Q1020 RMK 1CU040 A3012
RJCC 202330Z 16004KT 9999 FEW030 09/06 Q1019 RMK 1CU030 A3012
2018年10月21日00-24UTC 新千歳空港METAR -1

RJCC 210000Z 17006KT 9999 FEW030 12/07 Q1019 RMK 1CU030 A3012
RJCC 210030Z 16005KT 120V190 9999 FEW030 13/08 Q1019 RMK 1CU030 A3011
RJCC 210100Z 16005KT 120V190 9999 FEW030 15/09 Q1019 RMK 1CU030 A3011
RJCC 210130Z 16004KT 090V190 9999 FEW030 15/08 Q1019 RMK 1CU030 A3010
RJCC 210200Z 17004KT 100V210 9999 FEW030 16/08 Q1019 RMK 1CU030 A3010
RJCC 210230Z VRB03KT 9999 FEW030 17/08 Q1019 RMK 1CU030 A3009
RJCC 210300Z VRB02KT 9999 FEW030 18/07 Q1018 RMK 1CU030 A3008
RJCC 210330Z 35006KT 280V070 9999 FEW030 18/07 Q1018 RMK 2CU030 A3007
RJCC 210400Z 34005KT 310V030 9999 FEW030 19/06 Q1017 RMK 2CU030 A3005
RJCC 210430Z 02003KT 340V110 9999 FEW030 18/06 Q1017 RMK 2CU030 A3005
RJCC 210500Z 01006KT 9999 FEW030 SCT050 18/07 Q1017 RMK 1CU030 3CU050 A3005
RJCC 210530Z 36008KT 9999 FEW030 SCT070 18/07 Q1017 RMK 1CU030 3AC070 A3006
RJCC 210600Z 35013KT 9999 FEW030 18/07 Q1018 RMK 1CU030 A3006
RJCC 210630Z 35014KT 9999 FEW030 17/06 Q1018 RMK 1CU030 A3007
RJCC 210700Z 35010KT 9999 FEW030 SCT070 17/07 Q1018 RMK 1CU030 3AC070 A3008
RJCC 210730Z 36005KT 9999 FEW030 SCT070 16/07 Q1018 RMK 1CU030 3AC070 A3008
RJCC 210800Z 01004KT 9999 FEW030 SCT070 14/07 Q1019 RMK 1CU030 3AC070 A3009
RJCC 210830Z 36004KT 9999 FEW030 BKN070 14/07 Q1019 RMK 1CU030 6AC070 A3010
RJCC 210900Z 32003KT 290V010 9999 FEW030 SCT070 12/07 Q1019 RMK 1CU030 3AC070 A3011
RJCC 210930Z 26004KT 240V350 9999 FEW030 12/07 Q1020 RMK 1CU030 A3012
RJCC 211000Z VRB01KT 9999 FEW030 11/07 Q1020 RMK 1CU030 A3013
RJCC 211030Z VRB02KT 9999 FEW030 10/08 Q1020 RMK 1CU030 A3013
RJCC 211100Z 02002KT 9999 FEW030 10/08 Q1020 RMK 1CU030 A3013
RJCC 211130Z 35003KT 300V010 9999 FEW030 08/06 Q1020 RMK 1CU030 A3014
RJCC 211200Z VRB01KT 9999 FEW030 07/06 Q1020 RMK 1CU030 A3015
RJCC 211230Z 16001KT 9999 FEW030 07/06 Q1021 RMK 1CU030 A3015
RJCC 211300Z 32003KT 250V020 9999 FEW030 07/06 Q1021 RMK 1CU030 A3016
RJCC 211330Z VRB02KT 9999 FEW030 06/05 Q1021 RMK 1CU030 A3016
-2
RJCC 211400Z 06001KT 9999 FEW030 06/05 Q1021 RMK 1CU030 A3016
RJCC 211430Z 22002KT 9999 FEW030 06/05 Q1021 RMK 1CU030 A3016
RJCC 211500Z 33002KT 9999 FEW030 05/04 Q1021 RMK 1CU030 A3016
RJCC 211530Z 34003KT 9999 FEW030 05/04 Q1021 RMK 1CU030 A3016
RJCC 211600Z 35004KT 9999 FEW030 05/03 Q1021 RMK 1CU030 A3017
RJCC 211630Z 06002KT 9999 FEW030 05/04 Q1021 RMK 1CU030 A3017
RJCC 211700Z 35004KT 9999 FEW030 04/03 Q1021 RMK 1CU030 A3017
RJCC 211730Z 34005KT 9999 FEW030 04/04 Q1021 RMK 1CU030 A3017
RJCC 211800Z 33003KT 9999 FEW030 04/03 Q1021 RMK 1CU030 A3018
RJCC 211830Z 34006KT 9999 FEW030 04/03 Q1022 RMK 1CU030 A3018
RJCC 211900Z 35005KT 9999 FEW030 04/03 Q1022 RMK 1CU030 A3019
RJCC 211921Z 35005KT 5000 R01L/0550VP2000D R01R///// BR FEW001 04/03 Q1022 RMK 1ST001 A3019 2000E
RJCC 211930Z 35005KT 7000 PRFG FEW001 03/03 Q1022 RMK 1ST001 A3020 2000E
RJCC 212000Z 34006KT 3000 R01L/P2000N R01R///// BCFG FEW001 03/03 Q1022 RMK 1ST001 A3021
RJCC 212030Z 33006KT 3000 BCFG BR FEW001 03/03 Q1023 RMK 1ST001 A3021
RJCC 212100Z 34006KT 4000 R01L/P2000N R01R///// BCFG BR FEW001 BKN/// 03/03 Q1023 RMK 1ST001 A3021 1400E
RJCC 212122Z 35004KT 5000 R01L/P2000N R01R/P2000N PRFG BR FEW001 BKN/// 03/03 Q1023 RMK 1ST001 A3022 1400E FG NE-SE
RJCC 212130Z 36004KT 6000 R01L/P2000N R01R/P2000N PRFG FEW002 BKN/// 03/03 Q1023 RMK 1ST002 A3022 1400E FG NE-SE
RJCC 212200Z 36005KT 7000 R01L/1200VP2000D R01R/P2000N PRFG FEW002 BKN/// 04/04 Q1023 RMK 1ST002 A3023 1000E FG NE-SE
RJCC 212230Z 36004KT 8000 R01L/P2000N R01R/P2000N PRFG FEW002 BKN/// 05/05 Q1024 RMK 1ST002 A3024 1500E FG NE-SE
RJCC 212300Z 36007KT 9999 R01L/P2000N R01R/P2000N PRFG FEW002 BKN/// 06/06 Q1024 RMK 1ST002 A3024 FG E
RJCC 212330Z 34006KT 9999 FEW003 BKN/// 08/06 Q1024 RMK 1ST003 A3024
2018年10月22日00-24UTC 新千歳空港METAR -1

RJCC 220000Z 35008KT 9999 FEW020 SCT/// 09/07 Q1024 RMK 1CU020 A3024
RJCC 220030Z 34007KT 9999 FEW020 BKN/// 11/07 Q1024 RMK 1CU020 A3024
RJCC 220100Z 32005KT 280V350 9999 FEW025 BKN/// 12/07 Q1024 RMK 1CU025 A3024
RJCC 220130Z 33005KT 9999 FEW030 BKN/// 14/07 Q1024 RMK 1CU030 A3024
RJCC 220200Z 01003KT 320V030 9999 FEW030 BKN/// 15/06 Q1024 RMK 1CU030 A3024
RJCC 220230Z 02003KT 340V060 9999 FEW030 SCT/// 15/05 Q1023 RMK 1CU030 A3023
RJCC 220300Z VRB02KT 9999 FEW030 BKN/// 16/06 Q1023 RMK 1CU030 A3022
RJCC 220330Z VRB02KT 9999 FEW030 BKN/// 16/05 Q1023 RMK 1CU030 A3021
RJCC 220400Z 14004KT 110V210 9999 FEW030 BKN/// 17/06 Q1023 RMK 1CU030 A3021
RJCC 220430Z VRB02KT 9999 FEW030 BKN/// 18/06 Q1022 RMK 1CU030 A3020
RJCC 220500Z 17007KT 100V200 9999 FEW025 BKN/// 17/06 Q1023 RMK 1CU025 A3021
RJCC 220530Z 18008KT 9999 FEW025 BKN/// 16/07 Q1023 RMK 1CU025 A3021
RJCC 220600Z 18008KT 9999 FEW025 SCT/// 16/07 Q1023 RMK 1CU025 A3022
RJCC 220630Z 17009KT 9999 FEW025 SCT/// 16/06 Q1023 RMK 1CU025 A3022
RJCC 220700Z 18008KT 9999 FEW025 14/06 Q1023 RMK 1CU025 A3023
RJCC 220730Z 19009KT 9999 FEW025 14/07 Q1024 RMK 1CU025 A3024
RJCC 220800Z 16005KT 9999 FEW030 13/07 Q1024 RMK 1CU030 A3024
RJCC 220830Z 16003KT 9999 FEW030 SCT080 12/07 Q1024 RMK 1CU030 4AC080 A3025
RJCC 220900Z 14002KT 9999 FEW030 BKN080 11/07 Q1024 RMK 1CU030 5AC080 A3026
RJCC 220930Z VRB02KT 9999 FEW030 SCT080 09/06 Q1024 RMK 1CU030 3AC080 A3026
RJCC 221000Z VRB02KT 9999 FEW030 09/06 Q1024 RMK 1CU030 A3026
RJCC 221030Z 16003KT 9999 FEW015 SCT030 10/08 Q1024 RMK 1ST015 4CU030 A3026
RJCC 221100Z 17004KT 9999 FEW015 10/08 Q1024 RMK 1ST015 A3026
RJCC 221130Z 18002KT 9999 FEW015 10/09 Q1025 RMK 1ST015 A3027
RJCC 221200Z VRB01KT 9999 FEW015 SCT070 10/08 Q1025 RMK 1ST015 3AC070 A3027
RJCC 221230Z 20003KT 150V250 9999 -SHRA FEW015 SCT030 BKN060 10/09 Q1025 RMK 1ST015 3CU030 7CU060 A3027
RJCC 221300Z VRB01KT 9999 FEW015 BKN040 BKN080 10/09 Q1025 RMK 1ST015 5CU040 7AC080 A3027
-2
RJCC 221330Z 21003KT 9999 FEW015 SCT050 BKN080 10/08 Q1025 RMK 1ST015 4CU050 6AC080 A3027
RJCC 221400Z VRB01KT 9999 FEW015 SCT050 BKN080 10/09 Q1025 RMK 1ST015 3CU050 6AC080 A3027
RJCC 221430Z 23003KT 190V270 9999 -SHRA FEW015 SCT030 BKN050 10/09 Q1025 RMK 1ST015 4CU030 5CU050 A3027
RJCC 221500Z VRB02KT 8000 -SHRA FEW015 SCT030 BKN050 10/09 Q1025 RMK 1ST015 4CU030 6CU050 A3027
RJCC 221530Z 12008KT 6000 R19R/2000N R19L/P2000N SHRA FEW015 BKN025 BKN050 11/09 Q1024 RMK 1ST015 5CU025 7CU050 A3026
RJCC 221600Z 18004KT 100V230 8000 -SHRA FEW010 BKN020 BKN050 11/10 Q1025 RMK 1ST010 5CU020 7CU050 A3027
RJCC 221630Z 22003KT 120V270 9999 -SHRA FEW010 SCT020 BKN040 12/09 Q1025 RMK 1ST010 3CU020 7CU040 A3027
RJCC 221700Z 22003KT 190V250 9999 -SHRA FEW010 BKN025 BKN045 11/10 Q1025 RMK 1ST010 6CU025 7CU045 A3027
RJCC 221730Z 15003KT 9999 -SHRA FEW010 BKN025 BKN045 11/10 Q1024 RMK 1ST010 5CU025 7CU045 A3026
RJCC 221800Z 20004KT 100V230 9999 -SHRA FEW010 BKN025 BKN045 11/09 Q1024 RMK 1ST010 5CU025 7CU045 A3026
RJCC 221830Z 16003KT 130V200 9999 -SHRA FEW010 BKN025 BKN045 10/09 Q1024 RMK 1ST010 5CU025 7CU045 A3026
RJCC 221900Z VRB02KT 9999 FEW010 SCT025 BKN035 11/09 Q1025 RMK 1ST010 3CU025 6CU035 A3027
RJCC 221930Z 15005KT 9999 FEW010 SCT035 09/08 Q1024 RMK 1ST010 3CU035 A3026
RJCC 222000Z 14005KT 9999 FEW010 09/08 Q1024 RMK 1ST010 A3026
RJCC 222030Z 13003KT 9999 FEW010 09/08 Q1024 RMK 1ST010 A3026
RJCC 222100Z 11003KT 9999 FEW010 09/08 Q1024 RMK 1ST010 A3025
RJCC 222130Z 14004KT 9999 FEW015 10/09 Q1024 RMK 1ST015 A3025
RJCC 222200Z 13007KT 9999 FEW015 SCT030 11/09 Q1024 RMK 1ST015 3CU030 A3025
RJCC 222230Z 14007KT 9999 FEW015 SCT030 BKN070 13/10 Q1024 RMK 1ST015 3CU030 5AC070 A3026
RJCC 222300Z 14012KT 9999 FEW015 SCT040 BKN/// 14/10 Q1024 RMK 1ST015 4CU040 A3026
RJCC 222330Z 14012KT 9999 FEW015 SCT040 BKN/// 14/10 Q1024 RMK 1ST015 3CU040 A3025
2018年10月23日00-24UTC 新千歳空港METAR -1

RJCC 230000Z 14013KT 9999 FEW015 BKN035 BKN/// 16/11 Q1024 RMK 1ST015 5CU035 A3025
RJCC 230030Z 15017KT 9999 FEW015 SCT060 BKN/// 16/10 Q1024 RMK 1ST015 3CU060 A3025
RJCC 230100Z 15019G29KT 9999 FEW020 SCT035 BKN/// 17/11 Q1024 RMK 1CU020 4CU035A3025
RJCC 230130Z 15020KT 9999 FEW020 SCT035 BKN/// 17/11 Q1024 RMK 1CU020 3CU035 A3024
RJCC 230200Z 14020KT 9999 FEW025 SCT170 BKN/// 17/10 Q1023 RMK 1CU025 3AC170 A3023
RJCC 230216Z 14021G31KT 9999 FEW025 SCT035 BKN/// 17/10 Q1023 RMK 1CU025 3CU035 A3023
RJCC 230230Z 15020G30KT 9999 FEW025 SCT035 BKN/// 17/10 Q1023 RMK 2CU025 3CU035 A3023
RJCC 230300Z 15019KT 9999 FEW020 SCT025 BKN/// 17/09 Q1023 RMK 1CU020 3CU025 A3022
RJCC 230330Z 15019KT 9999 FEW020 SCT025 BKN/// 17/10 Q1023 RMK 1CU020 3CU025 A3021
RJCC 230400Z 15021KT 9999 FEW020 SCT025 BKN/// 16/10 Q1022 RMK 1CU020 3CU025 A3020
RJCC 230430Z 15021KT 9999 FEW020 BKN/// 16/10 Q1022
RJCC 230441Z 15017G27KT 9999 FEW020 BKN/// 16/10 Q1022 RMK 1CU020 A3020
RJCC 230500Z 15018G28KT 9999 FEW020 BKN/// 17/10 Q1022
RJCC 230530Z 15020KT 9999 FEW020 BKN/// 16/10 Q1022
RJCC 230600Z 15019KT 9999 FEW020 BKN/// 16/10 Q1022 RMK 1CU020 A3018
RJCC 230623Z 14017G27KT 9999 FEW020 BKN/// 16/10 Q1022 RMK 1CU020 A3018
RJCC 230630Z 14018KT 9999 FEW020 BKN/// 16/10 Q1022 RMK 1CU020 A3018
RJCC 230639Z 15016G26KT 9999 FEW020 SCT040 BKN/// 16/10 Q1022 RMK 1CU020 4CU040 A3018
RJCC 230700Z 14016KT 9999 FEW020 SCT040 BKN/// 15/10 Q1022 RMK 1CU020 3CU040 A3018
RJCC 230730Z 13013KT 9999 FEW020 SCT040 BKN/// 15/10 Q1021 RMK 1CU020 3CU040 A3017
RJCC 230800Z 13012KT 9999 FEW020 SCT035 BKN/// 15/09 Q1021 RMK 1CU020 3CU035 A3017
RJCC 230830Z 13012KT 9999 FEW020 BKN035 BKN/// 14/09 Q1021 RMK 1CU020 5CU035 A3017
RJCC 230900Z 13013KT 9999 FEW020 SCT035 BKN/// 14/09 Q1021 RMK 1CU020 3CU035 A3017
RJCC 230930Z 14012KT 9999 FEW020 SCT035 BKN/// 14/09 Q1021 RMK 1CU020 4CU035 A3016
RJCC 231000Z 14013KT 9999 FEW020 BKN035 BKN/// 14/09 Q1021 RMK 1CU020 5CU035 A3015
-2
RJCC 231030Z 14012KT 9999 FEW020 SCT060 BKN160 14/09 Q1020 RMK 1CU020 4CU060 7AC160 A3014
RJCC 231100Z 14013KT 9999 FEW020 SCT060 BKN/// 14/09 Q1020 RMK 1CU020 4CU060 A3013
RJCC 231130Z 13014KT 9999 FEW020 SCT060 BKN/// 14/09 Q1020 RMK 1CU020 3CU060 A3013
RJCC 231200Z 14015KT 9999 FEW020 SCT060 BKN/// 14/09 Q1020 RMK 1CU020 3CU060 A3013
RJCC 231230Z 13014KT 9999 FEW020 BKN060 BKN/// 14/09 Q1020 RMK 1CU020 5CU060 A3013
RJCC 231300Z 14015G25KT 9999 -SHRA FEW020 BKN060 BKN/// 14/09 Q1020 RMK 1CU020 5CU060 A3012
RJCC 231330Z 14016KT 9999 -SHRA FEW020 BKN060 BKN/// 14/09 Q1019 RMK 1CU020 6CU060 A3010
RJCC 231340Z 14016G26KT 9999 FEW020 BKN060 BKN/// 14/09 Q1019 RMK 1CU020 6CU060 A3010
RJCC 231400Z 13017KT 9999 FEW020 BKN040 BKN060 14/09 Q1019 RMK 1CU020 5CU040 6CU060 A3010
RJCC 231430Z 13017KT 9999 FEW020 SCT035 BKN050 14/09 Q1018 RMK 1CU020 4CU035 6CU050 A3008
RJCC 231500Z 14018G30KT 9999 FEW020 SCT035 BKN050 14/09 Q1018 RMK 1CU020 4CU035 6CU050 A3008
RJCC 231530Z 13019KT 9999 FEW020 SCT035 BKN050 14/09 Q1018 RMK 1CU020 3CU035 6CU050 A3007
RJCC 231600Z 14017KT 9999 FEW020 BKN040 14/09 Q1018 RMK 1CU020 6CU040 A3006
RJCC 231630Z 13019KT 9999 -SHRA FEW020 BKN035 14/08 Q1018 RMK 1CU020 6CU035 A3006
RJCC 231700Z 13017KT 9999 -SHRA FEW020 BKN030 13/09 Q1017 RMK 1CU020 6CU030 A3005
RJCC 231730Z 13018KT 9999 FEW020 BKN030 13/09 Q1016 RMK 1CU020 6CU030 A3003
RJCC 231800Z 13020KT 9999 -SHRA FEW020 BKN030 14/08 Q1016 RMK 1CU020 7CU030 A3001
RJCC 231830Z 13017KT 9999 -SHRA FEW020 BKN025 13/09 Q1015 RMK 1CU020 7CU025 A3000
RJCC 231900Z 13019G29KT 9999 -SHRA FEW020 BKN025 13/09 Q1015 RMK 1CU020 7CU025 A2998
RJCC 231930Z 14019KT 9999 -SHRA FEW020 BKN025 BKN040 13/08 Q1015 RMK 1CU020 5CU025 7CU040 A2997
RJCC 232000Z 13019G29KT 9999 -SHRA FEW020 BKN025 BKN040 13/09 Q1014 RMK 1CU020 5CU025 7CU040 A2997
RJCC 232030Z 14019KT 9999 -SHRA FEW020 SCT025 BKN040 13/09 Q1014 RMK 1CU020 3CU025 7CU040 A2996
-3
RJCC 232049Z 14015KT 6000 SHRA FEW020 BKN025 BKN040 12/10 Q1014 RMK 1CU020 5CU025 7CU040 A2995
RJCC 232100Z 14016KT 6000 SHRA FEW020 BKN025 BKN040 12/10 Q1014 RMK 1CU020 5CU025 7CU040 A2995
RJCC 232110Z 14015G25KT 8000 -SHRA FEW020 SCT025 BKN040 12/10 Q1014 RMK 1CU020 4CU025 7CU040 A2995
RJCC 232118Z 13015KT 6000 SHRA FEW020 SCT025 BKN035 12/10 Q1014 RMK 1CU020 4CU025 7CU035 A2994
RJCC 232130Z 13013KT 8000 -SHRA FEW020 BKN030 12/10 Q1014 RMK 1CU020 7CU030 A2995
RJCC 232135Z 14014KT 5000 SHRA BR FEW020 BKN030 12/10 Q1014 RMK 1CU020 7CU030 A2995
RJCC 232200Z 13016KT 5000 SHRA BR FEW015 BKN025 BKN050 12/10 Q1014 RMK 1ST015 5CU025 7CU050 A2996
RJCC 232215Z 14015KT 4900 R19R/2000N R19L/P2000N SHRA BR FEW015 SCT025 BKN040 12/10 Q1014 RMK 1ST015 4CU025 7CU040 A2997
RJCC 232230Z 14014KT 3500 R19R/1500VP2000D R19L/P2000N SHRA BR FEW010 BKN025 12/11 Q1014 RMK 1ST010 7CU025 A2996
RJCC 232300Z 16011KT 3500 R19R/2000N R19L/P2000N SHRA BR FEW008 BKN010 BKN025 12/11 Q1015 RMK 1ST008 5ST010 7CU025 A2997
RJCC 232306Z 16011KT 3100 R19R/2000N R19L/P2000N SHRA BR FEW008 BKN010 BKN025 12/11 Q1015 RMK 1ST008 5ST010 7CU025 A2998
RJCC 232319Z 19010KT 2300 R19R/P2000N R19L/P2000N +SHRA BR FEW008 BKN010 12/11 Q1015 RMK 1ST008 7ST010 A2998 MOD TURB OBS AT 2310Z 25NM S CHE BTN 11000FT AND 12000FT IN CMB B738
RJCC 232330Z 15014KT 2000 R19R/1200VP2000D R19L/2000N +SHRA BR FEW006 BKN010 13/11 Q1014 RMK 1ST006 7ST010 A2996 MOD TURB OBS AT 2316Z 5NM S CHE BTN 5000FT AND 8000FT IN CMB B772
RJCC 232334Z 15015KT 120V190 2000 R19R/1100VP2000D R19L/2000N +SHRA BR FEW006 BKN010 13/12 Q1014 RMK 1ST006 7ST010 A2996
RJCC 232339Z 15016KT 110V190 2000 R19R/1100V2000U R19L/2000N +SHRA BR FEW006 BKN010 13/11 Q1014 RMK 1ST006 7ST010 A2996
RJCC 232341Z 15015KT 110V190 2000 R19R/1100V2000N R19L/P2000N +SHRA BR FEW006 BKN010 13/11 Q1014 RMK 1ST006 7ST010 A2996
RJCC 232349Z 17013KT 2400 R19R/1300VP2000U R19L/P2000N SHRA BR FEW006 SCT008 BKN010 13/11 Q1014 RMK 1ST006 3ST008 7ST010 A2996
2018年10月24日00-24UTC 新千歳空港METAR -1

RJCC 240000Z 16008KT 130V190 3200 SHRA BR FEW006 BKN008 BKN010 13/12 Q1014 RMK 1ST006 5ST008 7ST010 A2995
RJCC 240030Z 13012G23KT 3500 R19R/1300VP2000N R19L/2000N +SHRA BR FEW006 BKN008 BKN020 14/13 Q1013 RMK 1ST006 5ST008 6CU020 A2992 RI++
RJCC 240033Z 13014G24KT 2000 R19R/0650VP2000D R19L/1000VP2000D +SHRA BR FEW005 BKN008 BKN012 14/12 Q1013 RMK 1ST005 5ST008 7ST012 A2993
RJCC 240036Z 14013G24KT 110V170 1800 R19R/0600VP2000D R19L/1000VP2000D +SHRA BR FEW005 BKN008 BKN012 14/12 Q1013 RMK 1ST005 5ST008 7ST012 A2993
RJCC 240039Z 15013G24KT 1200 R19R/0600VP2000U R19L/1000VP2000U +SHRA BR SCT005 BKN008 14/12 Q1013 RMK 3ST005 7ST008 A2994 RI++
RJCC 240046Z 20008KT 4000 R19R/0550VP2000U R19L/0800VP2000N SHRA BR FEW005 BKN008 BKN012 13/12 Q1013 RMK 2ST005 5ST008 6ST012 A2993 9999W-NW
RJCC 240100Z 16010KT 130V240 8000 -SHRA FEW005 SCT008 BKN012 15/14 Q1013 RMK 1ST005 4ST008 6ST012 A2992
RJCC 240109Z 15016KT 9999 R19R/0750VP2000D R19L/1300VP2000N +SHRA BR FEW003 SCT005 BKN008 14/13 Q1013 WS R19L RMK 1ST003 3ST005 6ST008 A2992 3000NE-SE RI++
RJCC 240114Z 15015KT 9999 R19R/0700VP2000D R19L/1100VP2000D SHRA BR FEW003 SCT005 BKN008 15/14 Q1013 RMK 1ST003 3ST005 6ST008 A2991 4000NE
RJCC 240119Z 14014KT 9999 R19R/0700VP2000U R19L/1100VP2000U -SHRA FEW003 SCT008 BKN012 15/14 Q1013 RMK 1ST003 4ST008 6ST012 A2992
RJCC 240130Z 15016KT 9999 -SHRA FEW005 SCT008 BKN020 15/14 Q1013 RMK 1ST005 4ST008 6CU020 A2992
RJCC 240200Z 17018KT 9999 -SHRA FEW008 SCT020 BKN100 18/14 Q1013 RMK 2ST008 4CU020 5AC100 A2991
RJCC 240230Z 18015KT 9999 FEW008 SCT020 BKN100 17/13 Q1012 RMK 1ST008 3CU020 5AC100 A2991
RJCC 240300Z 18015KT 9999 FEW008 SCT020 BKN100 17/13 Q1012 RMK 1ST008 3CU020 5AC100 A2990
RJCC 240330Z 18012KT 9999 FEW015 BKN100 18/12 Q1012 RMK 1ST015 6AC100 A2989
RJCC 240400Z 18013KT 9999 FEW020 SCT045 BKN100 19/13 Q1012 RMK 1CU020 3CU045 5AC100 A2988
RJCC 240430Z 17014KT 9999 FEW020 19/11 Q1011 RMK 1CU020 A2988
-2
RJCC 240500Z 19014KT 9999 FEW020 19/11 Q1011 RMK 1CU020 A2988
RJCC 240530Z 19012KT 9999 FEW030 19/11 Q1012 RMK 1CU030 A2988
RJCC 240600Z 20011KT 9999 FEW030 18/10 Q1012 RMK 1CU030 A2988
RJCC 240630Z 26009KT 220V290 9999 FEW030 19/06 Q1012 RMK 1CU030 A2989
RJCC 240700Z 27006KT 220V290 9999 FEW030 18/06 Q1012 RMK 1CU030 A2990
RJCC 240730Z 25006KT 210V270 9999 FEW030 16/06 Q1012 RMK 1CU030 A2990
RJCC 240800Z 22004KT 9999 FEW030 15/06 Q1013 RMK 1CU030 A2991
RJCC 240830Z 24006KT 9999 FEW030 14/07 Q1013 RMK 1CU030 A2992
RJCC 240900Z 23005KT 9999 FEW030 15/07 Q1013 RMK 1CU030 A2993
RJCC 240930Z 32004KT 250V340 9999 FEW030 12/07 Q1013 RMK 1CU030 A2994
RJCC 241000Z VRB02KT 9999 FEW025 10/07 Q1014 RMK 1CU025 A2995
RJCC 241030Z VRB01KT 9999 FEW025 10/06 Q1014 RMK 1CU025 A2995
RJCC 241100Z VRB02KT 9999 FEW025 10/07 Q1014 RMK 1CU025 A2996
RJCC 241130Z VRB01KT 9999 FEW025 09/07 Q1015 RMK 1CU025 A2997
RJCC 241200Z VRB01KT 9999 FEW025 09/07 Q1015 RMK 1CU025 A2998
RJCC 241230Z VRB02KT 9999 FEW025 08/07 Q1015 RMK 1CU025 A2999
RJCC 241300Z 33002KT 9999 FEW025 08/07 Q1015 RMK 1CU025 A2999
RJCC 241330Z 33003KT 9999 FEW020 07/06 Q1015 RMK 1CU020 A2999
RJCC 241400Z 31005KT 9999 FEW020 07/06 Q1015 RMK 1CU020 A2999
RJCC 241430Z VRB02KT 9999 FEW020 08/07 Q1015 RMK 1CU020 A3000
RJCC 241500Z VRB01KT 9999 FEW020 07/06 Q1016 RMK 1CU020 A3000
RJCC 241530Z VRB01KT 9999 FEW020 SCT040 07/06 Q1015 RMK 1CU020 3CU040 A3000
RJCC 241600Z 26003KT 9999 FEW020 BKN045 07/06 Q1016 RMK 1CU020 5CU045 A3000
RJCC 241630Z 19002KT 9999 FEW020 06/05 Q1016 RMK 1CU020 A3000
RJCC 241700Z VRB01KT 9999 FEW020 06/05 Q1016 RMK 1CU020 A3000
RJCC 241730Z 08003KT 9999 FEW020 05/05 Q1016 RMK 1CU020 A3000
RJCC 241800Z VRB02KT 9999 FEW020 SCT060 04/04 Q1016 RMK 1CU020 4CU060 A3000
RJCC 241830Z 00000KT 9999 FEW020 BKN050 05/04 Q1016 RMK 1CU020 6CU050 A3001
RJCC 241900Z VRB01KT 9999 FEW020 SCT050 05/04 Q1016 RMK 1CU020 4CU050 A3001
RJCC 241930Z 00000KT 9999 FEW020 SCT045 05/04 Q1016 RMK 1CU020 3CU045 A3002
-3
RJCC 242000Z VRB01KT 9999 FEW020 04/04 Q1016 RMK 1CU020 A3003
RJCC 242030Z 15002KT 9999 PRFG FEW020 03/03 Q1016 RMK 1CU020 A3003 FG NE-SE
RJCC 242100Z 16002KT 9999 PRFG FEW020 03/03 Q1016 RMK 1CU020 A3003 FG NE-SE
RJCC 242130Z 10003KT 9999 PRFG FEW020 SCT060 04/03 Q1017 RMK 1CU020 4CU060 A3003 FG NE-SE
RJCC 242200Z VRB02KT 9999 PRFG FEW020 SCT050 06/05 Q1017 RMK 1CU020 3CU050 A3004 FG NE-SE
RJCC 242230Z VRB01KT 9999 PRFG FEW030 SCT050 06/05 Q1017 RMK 1CU030 3CU050 A3004 FG NE-SE
RJCC 242300Z VRB01KT 9999 PRFG FEW030 07/05 Q1017 RMK 1CU030 A3005 FG NE-SE
RJCC 242330Z VRB01KT 9999 FEW030 09/07 Q1017 RMK 1CU030 A3005
2018年10月25日00-24UTC 新千歳空港METAR -1

RJCC 250000Z VRB01KT 9999 FEW030 12/07 Q1017 RMK 1CU030 A3005
RJCC 250030Z VRB02KT 9999 FEW030 15/06 Q1017 RMK 1CU030 A3004
RJCC 250100Z 36004KT 290V060 9999 FEW030 16/04 Q1017 RMK 1CU030 A3004
RJCC 250112Z 30010KT 9999 FEW030 16/03 Q1017 RMK 1CU030 A3004
RJCC 250130Z 32007KT 280V360 9999 FEW030 SCT060 17/03 Q1017 RMK 1CU030 3CU060 A3004
RJCC 250200Z 35004KT 310V020 9999 FEW030 BKN060 16/02 Q1017 RMK 1CU030 5CU060 A3003
RJCC 250230Z 35009KT 9999 FEW030 BKN060 17/02 Q1016 RMK 1CU030 5CU060 A3003
RJCC 250300Z 35009KT 320V050 9999 FEW030 BKN060 17/02 Q1016 RMK 1CU030 5CU060 A3002
RJCC 250330Z 01009KT 330V040 9999 FEW030 SCT060 16/02 Q1016 RMK 1CU030 4CU060 A3001
RJCC 250400Z 01010KT 9999 FEW030 SCT060 17/03 Q1016 RMK 1CU030 4CU060 A3001
RJCC 250430Z VRB05KT 9999 FEW030 16/02 Q1016 RMK 1CU030 A3000
RJCC 250500Z 04006KT 020V080 9999 FEW030 17/03 Q1016 RMK 1CU030 A3000
RJCC 250530Z 36007KT 9999 FEW030 16/03 Q1016 RMK 1CU030 A3000
RJCC 250600Z 05003KT 310V120 9999 FEW030 SCT080 16/03 Q1016 RMK 1CU030 4AC080 A3000
RJCC 250630Z VRB01KT 9999 FEW030 BKN080 16/04 Q1016 RMK 1CU030 5AC080 A3001
RJCC 250700Z 19005KT 9999 FEW030 SCT080 15/04 Q1016 RMK 1CU030 3AC080 A3001
RJCC 250730Z 23007KT 200V260 9999 FEW030 SCT080 14/03 Q1016 RMK 1CU030 3AC080 A3000
RJCC 250800Z 28008KT 9999 FEW030 SCT070 BKN100 13/04 Q1016 RMK 1CU030 4AC070 7AC100 A3001
RJCC 250830Z 32008KT 9999 FEW030 SCT060 BKN100 14/04 Q1016 RMK 1CU030 4CU060 7AC100 A3002
RJCC 250900Z 32016KT 9999 -SHRA FEW030 SCT060 BKN100 14/05 Q1017 RMK 1CU030 4CU060 7AC100 A3004
RJCC 250930Z 31013KT 9999 -SHRA FEW030 BKN060 13/06 Q1017 RMK 1CU030 7CU060 A3005
RJCC 251000Z 27008KT 240V320 9999 -SHRA FEW030 BKN060 12/06 Q1017 RMK 1CU030 7CU060 A3005
RJCC 251030Z 23007KT 180V260 9999 FEW030 SCT060 BKN090 12/05 Q1017 RMK 1CU030 3CU060 7AC090 A3004
-2
RJCC 251100Z 26005KT 140V290 9999 FEW030 BKN090 12/05 Q1017 RMK 1CU030 6AC090 A3005
RJCC 251130Z 31012KT 9999 -SHRA FEW030 BKN045 BKN060 12/06 Q1018 RMK 1CU030 5CU045 7CU060 A3006
RJCC 251200Z 28009KT 250V310 9999 -SHRA FEW030 SCT045 BKN060 12/06 Q1017 RMK 1CU030 3CU045 7CU060 A3006
RJCC 251230Z 26011G22KT 9999 -SHRA FEW015 BKN060 BKN080 12/05 Q1017 RMK 1ST015 5CU060 7AC080 A3005
RJCC 251300Z 25013KT 9999 -SHRA FEW040 BKN060 BKN080 12/06 Q1018 RMK 1CU040 5CU060 7AC080 A3006
RJCC 251330Z 25009KT 9999 FEW040 SCT060 BKN080 11/05 Q1017 RMK 1CU040 3CU060 7AC080 A3005
RJCC 251400Z 22008KT 9999 FEW040 SCT060 BKN080 11/06 Q1018 RMK 1CU040 3CU060 7AC080 A3006
RJCC 251430Z 23006KT 9999 FEW040 SCT110 11/06 Q1017 RMK 1CU040 4AC110 A3006
RJCC 251500Z 21005KT 9999 FEW040 SCT120 10/06 Q1018 RMK 1CU040 3AC120 A3007
RJCC 251530Z 25007KT 9999 FEW050 10/05 Q1018 RMK 2CU050 A3007
RJCC 251600Z 01005KT 230V050 9999 FEW050 09/05 Q1018 RMK 1CU050 A3008
RJCC 251630Z 35004KT 9999 FEW050 08/06 Q1019 RMK 1CU050 A3010
RJCC 251700Z 24004KT 9999 FEW040 07/05 Q1019 RMK 1CU040 A3010
RJCC 251730Z 26003KT 9999 FEW030 SCT040 07/06 Q1019 RMK 1CU030 3CU040 A3010
RJCC 251800Z 35003KT 310V040 9999 FEW040 07/05 Q1019 RMK 1CU040 A3010
RJCC 251830Z 34004KT 9999 FEW040 05/04 Q1019 RMK 1CU040 A3010
RJCC 251900Z 34007KT 9999 FEW040 05/04 Q1019 RMK 1CU040 A3011
RJCC 251930Z VRB01KT 9999 FEW040 05/04 Q1020 RMK 1CU040 A3012
RJCC 252000Z 16003KT 9999 FEW040 04/04 Q1020 RMK 1CU040 A3013
RJCC 252030Z 01003KT 9999 FEW040 03/03 Q1020 RMK 1CU040 A3014
-3
RJCC 252100Z 02003KT 9999 R19R/P2000N R19L///// PRFG BR FEW040 03/02 Q1020 RMK 1CU040 A3014 1500NE FG NE-E
RJCC 252130Z 02003KT 9999 R19R/0600V1200D R19L/1400V1800U PRFG BR FEW040 03/03 Q1020 RMK 1CU040 A3014 1200E FG NE-SE
RJCC 252132Z 02003KT 9999 R19R/0600V1200D R19L/1400V2000U PRFG BR FEW040 03/03 Q1020 RMK 1CU040 A3014 1200E FG NE-SE
RJCC 252137Z 02003KT 9999 R19R/0600V1100U R19L/1800N PRFG BR FEW040 04/03 Q1020 RMK 1CU040 A3014 1200E FG NE-SE
RJCC 252200Z VRB02KT 9999 R01L/P2000N R01R/P2000N PRFG BR FEW040 05/04 Q1020 RMK 1CU040 A3014 1600E FG E-SE
RJCC 252230Z VRB02KT CAVOK 06/05 Q1021 RMK A3016
RJCC 252300Z VRB01KT CAVOK 08/05 Q1021 RMK A3016
RJCC 252330Z VRB02KT CAVOK 10/06 Q1021 RMK A3016

ログインすると、残り799件のコメントが見れるよ

mixiユーザー
ログインしてコメントしよう!

RJCCのMETAR・TAF 愛好会 更新情報

RJCCのMETAR・TAF 愛好会のメンバーはこんなコミュニティにも参加しています

星印の数は、共通して参加しているメンバーが多いほど増えます。